<?xml version="1.0" encoding="UTF-8" standalone="no" ?>
<gpx xmlns="http://www.topografix.com/GPX/1/1" xmlns:xsi="http://www.w3.org/2001/XMLSchema-instance" xsi:schemaLocation="http://www.topografix.com/GPX/1/1 http://www.topografix.com/GPX/1/1/gpx.xsd" version="1.1" creator="VisuGPX - https://www.visugpx.com">
  <metadata>
    <name>Jouhe - Chevigny - Menotey</name>
    <desc><![CDATA[Randonnée effectuée le 25 avril 2018]]></desc>
  </metadata>
  <trk>
    <name><![CDATA[25 avr. 2018 à 08:57:17]]></name>
    <cmt><![CDATA[25 avr. 2018 à 08:57:17]]></cmt>
    <trkseg>
      <trkpt lat="47.13921" lon="5.48898">
        <ele>226</ele>
        <time>2018-04-25T06:57:18Z</time>
      </trkpt>
      <trkpt lat="47.13921" lon="5.48898">
        <ele>226</ele>
        <time>2018-04-25T06:57:19Z</time>
      </trkpt>
      <trkpt lat="47.13923" lon="5.48898">
        <ele>226</ele>
        <time>2018-04-25T06:59:02Z</time>
      </trkpt>
      <trkpt lat="47.13928" lon="5.48905">
        <ele>228</ele>
        <time>2018-04-25T07:00:02Z</time>
      </trkpt>
      <trkpt lat="47.13931" lon="5.48911">
        <ele>227</ele>
        <time>2018-04-25T07:00:08Z</time>
      </trkpt>
      <trkpt lat="47.13943" lon="5.48929">
        <ele>225</ele>
        <time>2018-04-25T07:00:28Z</time>
      </trkpt>
      <trkpt lat="47.1395" lon="5.48938">
        <ele>226</ele>
        <time>2018-04-25T07:00:35Z</time>
      </trkpt>
      <trkpt lat="47.13957" lon="5.48946">
        <ele>227</ele>
        <time>2018-04-25T07:00:43Z</time>
      </trkpt>
      <trkpt lat="47.13965" lon="5.48952">
        <ele>227</ele>
        <time>2018-04-25T07:00:51Z</time>
      </trkpt>
      <trkpt lat="47.13974" lon="5.48958">
        <ele>226</ele>
        <time>2018-04-25T07:01:00Z</time>
      </trkpt>
      <trkpt lat="47.13984" lon="5.4896">
        <ele>226</ele>
        <time>2018-04-25T07:01:08Z</time>
      </trkpt>
      <trkpt lat="47.14002" lon="5.48951">
        <ele>226</ele>
        <time>2018-04-25T07:01:24Z</time>
      </trkpt>
      <trkpt lat="47.14015" lon="5.48944">
        <ele>226</ele>
        <time>2018-04-25T07:01:41Z</time>
      </trkpt>
      <trkpt lat="47.14026" lon="5.48946">
        <ele>227</ele>
        <time>2018-04-25T07:01:48Z</time>
      </trkpt>
      <trkpt lat="47.14033" lon="5.48954">
        <ele>227</ele>
        <time>2018-04-25T07:01:55Z</time>
      </trkpt>
      <trkpt lat="47.14048" lon="5.48972">
        <ele>228</ele>
        <time>2018-04-25T07:02:11Z</time>
      </trkpt>
      <trkpt lat="47.14054" lon="5.48962">
        <ele>228</ele>
        <time>2018-04-25T07:02:20Z</time>
      </trkpt>
      <trkpt lat="47.14057" lon="5.48956">
        <ele>228</ele>
        <time>2018-04-25T07:02:27Z</time>
      </trkpt>
      <trkpt lat="47.1406" lon="5.48942">
        <ele>227</ele>
        <time>2018-04-25T07:02:35Z</time>
      </trkpt>
      <trkpt lat="47.14064" lon="5.48937">
        <ele>228</ele>
        <time>2018-04-25T07:02:38Z</time>
      </trkpt>
      <trkpt lat="47.14067" lon="5.48932">
        <ele>228</ele>
        <time>2018-04-25T07:02:42Z</time>
      </trkpt>
      <trkpt lat="47.14069" lon="5.48926">
        <ele>228</ele>
        <time>2018-04-25T07:02:46Z</time>
      </trkpt>
      <trkpt lat="47.1407" lon="5.48919">
        <ele>228</ele>
        <time>2018-04-25T07:02:50Z</time>
      </trkpt>
      <trkpt lat="47.14076" lon="5.4889">
        <ele>228</ele>
        <time>2018-04-25T07:03:09Z</time>
      </trkpt>
      <trkpt lat="47.14077" lon="5.48883">
        <ele>229</ele>
        <time>2018-04-25T07:03:14Z</time>
      </trkpt>
      <trkpt lat="47.14077" lon="5.48875">
        <ele>229</ele>
        <time>2018-04-25T07:03:19Z</time>
      </trkpt>
      <trkpt lat="47.14078" lon="5.48868">
        <ele>230</ele>
        <time>2018-04-25T07:03:24Z</time>
      </trkpt>
      <trkpt lat="47.14076" lon="5.48861">
        <ele>230</ele>
        <time>2018-04-25T07:03:29Z</time>
      </trkpt>
      <trkpt lat="47.14081" lon="5.48847">
        <ele>232</ele>
        <time>2018-04-25T07:03:38Z</time>
      </trkpt>
      <trkpt lat="47.14083" lon="5.4884">
        <ele>232</ele>
        <time>2018-04-25T07:03:43Z</time>
      </trkpt>
      <trkpt lat="47.14084" lon="5.48833">
        <ele>232</ele>
        <time>2018-04-25T07:03:47Z</time>
      </trkpt>
      <trkpt lat="47.14085" lon="5.48825">
        <ele>233</ele>
        <time>2018-04-25T07:03:52Z</time>
      </trkpt>
      <trkpt lat="47.14086" lon="5.48818">
        <ele>233</ele>
        <time>2018-04-25T07:03:57Z</time>
      </trkpt>
      <trkpt lat="47.14082" lon="5.48775">
        <ele>236</ele>
        <time>2018-04-25T07:04:25Z</time>
      </trkpt>
      <trkpt lat="47.14084" lon="5.48762">
        <ele>236</ele>
        <time>2018-04-25T07:04:33Z</time>
      </trkpt>
      <trkpt lat="47.14088" lon="5.4875">
        <ele>237</ele>
        <time>2018-04-25T07:04:40Z</time>
      </trkpt>
      <trkpt lat="47.1409" lon="5.48737">
        <ele>238</ele>
        <time>2018-04-25T07:04:48Z</time>
      </trkpt>
      <trkpt lat="47.14092" lon="5.48724">
        <ele>237</ele>
        <time>2018-04-25T07:04:57Z</time>
      </trkpt>
      <trkpt lat="47.14095" lon="5.48682">
        <ele>238</ele>
        <time>2018-04-25T07:05:24Z</time>
      </trkpt>
      <trkpt lat="47.14095" lon="5.4864">
        <ele>238</ele>
        <time>2018-04-25T07:05:48Z</time>
      </trkpt>
      <trkpt lat="47.14095" lon="5.48625">
        <ele>237</ele>
        <time>2018-04-25T07:05:56Z</time>
      </trkpt>
      <trkpt lat="47.14105" lon="5.48599">
        <ele>238</ele>
        <time>2018-04-25T07:06:16Z</time>
      </trkpt>
      <trkpt lat="47.14115" lon="5.48602">
        <ele>239</ele>
        <time>2018-04-25T07:06:23Z</time>
      </trkpt>
      <trkpt lat="47.14124" lon="5.48599">
        <ele>239</ele>
        <time>2018-04-25T07:06:32Z</time>
      </trkpt>
      <trkpt lat="47.14144" lon="5.48604">
        <ele>240</ele>
        <time>2018-04-25T07:06:50Z</time>
      </trkpt>
      <trkpt lat="47.14151" lon="5.48613">
        <ele>241</ele>
        <time>2018-04-25T07:06:59Z</time>
      </trkpt>
      <trkpt lat="47.14157" lon="5.48625">
        <ele>241</ele>
        <time>2018-04-25T07:07:07Z</time>
      </trkpt>
      <trkpt lat="47.14164" lon="5.48632">
        <ele>241</ele>
        <time>2018-04-25T07:07:15Z</time>
      </trkpt>
      <trkpt lat="47.14193" lon="5.48661">
        <ele>243</ele>
        <time>2018-04-25T07:07:45Z</time>
      </trkpt>
      <trkpt lat="47.14194" lon="5.48675">
        <ele>243</ele>
        <time>2018-04-25T07:07:51Z</time>
      </trkpt>
      <trkpt lat="47.14229" lon="5.48712">
        <ele>244</ele>
        <time>2018-04-25T07:08:29Z</time>
      </trkpt>
      <trkpt lat="47.14237" lon="5.48715">
        <ele>244</ele>
        <time>2018-04-25T07:08:35Z</time>
      </trkpt>
      <trkpt lat="47.14246" lon="5.4871">
        <ele>244</ele>
        <time>2018-04-25T07:08:47Z</time>
      </trkpt>
      <trkpt lat="47.14256" lon="5.48712">
        <ele>245</ele>
        <time>2018-04-25T07:08:56Z</time>
      </trkpt>
      <trkpt lat="47.14265" lon="5.48708">
        <ele>245</ele>
        <time>2018-04-25T07:09:04Z</time>
      </trkpt>
      <trkpt lat="47.14274" lon="5.48702">
        <ele>245</ele>
        <time>2018-04-25T07:09:12Z</time>
      </trkpt>
      <trkpt lat="47.14283" lon="5.48695">
        <ele>245</ele>
        <time>2018-04-25T07:09:20Z</time>
      </trkpt>
      <trkpt lat="47.14291" lon="5.48689">
        <ele>245</ele>
        <time>2018-04-25T07:09:26Z</time>
      </trkpt>
      <trkpt lat="47.14299" lon="5.48684">
        <ele>245</ele>
        <time>2018-04-25T07:09:33Z</time>
      </trkpt>
      <trkpt lat="47.14308" lon="5.48677">
        <ele>245</ele>
        <time>2018-04-25T07:09:41Z</time>
      </trkpt>
      <trkpt lat="47.14317" lon="5.48671">
        <ele>246</ele>
        <time>2018-04-25T07:09:50Z</time>
      </trkpt>
      <trkpt lat="47.14323" lon="5.48661">
        <ele>247</ele>
        <time>2018-04-25T07:09:59Z</time>
      </trkpt>
      <trkpt lat="47.14339" lon="5.48648">
        <ele>248</ele>
        <time>2018-04-25T07:10:14Z</time>
      </trkpt>
      <trkpt lat="47.14348" lon="5.48646">
        <ele>248</ele>
        <time>2018-04-25T07:10:22Z</time>
      </trkpt>
      <trkpt lat="47.14357" lon="5.48641">
        <ele>248</ele>
        <time>2018-04-25T07:10:30Z</time>
      </trkpt>
      <trkpt lat="47.14382" lon="5.48634">
        <ele>250</ele>
        <time>2018-04-25T07:10:55Z</time>
      </trkpt>
      <trkpt lat="47.14391" lon="5.48643">
        <ele>250</ele>
        <time>2018-04-25T07:11:06Z</time>
      </trkpt>
      <trkpt lat="47.14421" lon="5.48681">
        <ele>252</ele>
        <time>2018-04-25T07:11:40Z</time>
      </trkpt>
      <trkpt lat="47.14452" lon="5.48715">
        <ele>253</ele>
        <time>2018-04-25T07:12:13Z</time>
      </trkpt>
      <trkpt lat="47.1446" lon="5.48724">
        <ele>254</ele>
        <time>2018-04-25T07:12:20Z</time>
      </trkpt>
      <trkpt lat="47.14477" lon="5.48737">
        <ele>254</ele>
        <time>2018-04-25T07:12:38Z</time>
      </trkpt>
      <trkpt lat="47.14484" lon="5.48746">
        <ele>254</ele>
        <time>2018-04-25T07:12:46Z</time>
      </trkpt>
      <trkpt lat="47.14492" lon="5.48755">
        <ele>255</ele>
        <time>2018-04-25T07:12:55Z</time>
      </trkpt>
      <trkpt lat="47.14501" lon="5.48762">
        <ele>255</ele>
        <time>2018-04-25T07:13:04Z</time>
      </trkpt>
      <trkpt lat="47.1451" lon="5.48769">
        <ele>255</ele>
        <time>2018-04-25T07:13:12Z</time>
      </trkpt>
      <trkpt lat="47.14525" lon="5.48789">
        <ele>257</ele>
        <time>2018-04-25T07:13:28Z</time>
      </trkpt>
      <trkpt lat="47.14532" lon="5.48797">
        <ele>257</ele>
        <time>2018-04-25T07:13:36Z</time>
      </trkpt>
      <trkpt lat="47.14555" lon="5.48826">
        <ele>262</ele>
        <time>2018-04-25T07:14:00Z</time>
      </trkpt>
      <trkpt lat="47.14568" lon="5.48839">
        <ele>262</ele>
        <time>2018-04-25T07:14:11Z</time>
      </trkpt>
      <trkpt lat="47.14576" lon="5.48846">
        <ele>262</ele>
        <time>2018-04-25T07:14:19Z</time>
      </trkpt>
      <trkpt lat="47.14611" lon="5.48873">
        <ele>266</ele>
        <time>2018-04-25T07:14:56Z</time>
      </trkpt>
      <trkpt lat="47.14618" lon="5.48882">
        <ele>265</ele>
        <time>2018-04-25T07:15:04Z</time>
      </trkpt>
      <trkpt lat="47.1463" lon="5.48903">
        <ele>265</ele>
        <time>2018-04-25T07:15:19Z</time>
      </trkpt>
      <trkpt lat="47.14637" lon="5.4891">
        <ele>265</ele>
        <time>2018-04-25T07:15:27Z</time>
      </trkpt>
      <trkpt lat="47.14664" lon="5.48951">
        <ele>269</ele>
        <time>2018-04-25T07:16:00Z</time>
      </trkpt>
      <trkpt lat="47.14677" lon="5.48971">
        <ele>268</ele>
        <time>2018-04-25T07:16:16Z</time>
      </trkpt>
      <trkpt lat="47.1469" lon="5.48994">
        <ele>270</ele>
        <time>2018-04-25T07:16:32Z</time>
      </trkpt>
      <trkpt lat="47.14696" lon="5.49006">
        <ele>270</ele>
        <time>2018-04-25T07:16:40Z</time>
      </trkpt>
      <trkpt lat="47.14706" lon="5.49029">
        <ele>273</ele>
        <time>2018-04-25T07:16:56Z</time>
      </trkpt>
      <trkpt lat="47.14714" lon="5.49041">
        <ele>282</ele>
        <time>2018-04-25T07:18:40Z</time>
      </trkpt>
      <trkpt lat="47.14719" lon="5.49062">
        <ele>278</ele>
        <time>2018-04-25T07:18:56Z</time>
      </trkpt>
      <trkpt lat="47.1473" lon="5.49081">
        <ele>277</ele>
        <time>2018-04-25T07:19:10Z</time>
      </trkpt>
      <trkpt lat="47.14736" lon="5.49091">
        <ele>276</ele>
        <time>2018-04-25T07:19:18Z</time>
      </trkpt>
      <trkpt lat="47.14743" lon="5.491">
        <ele>276</ele>
        <time>2018-04-25T07:19:26Z</time>
      </trkpt>
      <trkpt lat="47.14753" lon="5.49103">
        <ele>276</ele>
        <time>2018-04-25T07:19:35Z</time>
      </trkpt>
      <trkpt lat="47.1476" lon="5.49101">
        <ele>276</ele>
        <time>2018-04-25T07:19:44Z</time>
      </trkpt>
      <trkpt lat="47.14766" lon="5.49095">
        <ele>276</ele>
        <time>2018-04-25T07:19:52Z</time>
      </trkpt>
      <trkpt lat="47.14769" lon="5.49089">
        <ele>277</ele>
        <time>2018-04-25T07:19:57Z</time>
      </trkpt>
      <trkpt lat="47.14774" lon="5.49087">
        <ele>277</ele>
        <time>2018-04-25T07:20:01Z</time>
      </trkpt>
      <trkpt lat="47.14779" lon="5.49084">
        <ele>276</ele>
        <time>2018-04-25T07:20:05Z</time>
      </trkpt>
      <trkpt lat="47.14783" lon="5.49079">
        <ele>277</ele>
        <time>2018-04-25T07:20:10Z</time>
      </trkpt>
      <trkpt lat="47.14786" lon="5.49075">
        <ele>276</ele>
        <time>2018-04-25T07:20:14Z</time>
      </trkpt>
      <trkpt lat="47.14791" lon="5.49071">
        <ele>276</ele>
        <time>2018-04-25T07:20:19Z</time>
      </trkpt>
      <trkpt lat="47.14796" lon="5.49066">
        <ele>277</ele>
        <time>2018-04-25T07:20:23Z</time>
      </trkpt>
      <trkpt lat="47.14801" lon="5.49063">
        <ele>279</ele>
        <time>2018-04-25T07:20:27Z</time>
      </trkpt>
      <trkpt lat="47.14806" lon="5.4906">
        <ele>279</ele>
        <time>2018-04-25T07:20:31Z</time>
      </trkpt>
      <trkpt lat="47.1481" lon="5.49057">
        <ele>278</ele>
        <time>2018-04-25T07:20:35Z</time>
      </trkpt>
      <trkpt lat="47.1482" lon="5.49051">
        <ele>279</ele>
        <time>2018-04-25T07:20:45Z</time>
      </trkpt>
      <trkpt lat="47.1483" lon="5.49046">
        <ele>278</ele>
        <time>2018-04-25T07:20:53Z</time>
      </trkpt>
      <trkpt lat="47.14835" lon="5.49044">
        <ele>279</ele>
        <time>2018-04-25T07:20:57Z</time>
      </trkpt>
      <trkpt lat="47.1484" lon="5.49043">
        <ele>277</ele>
        <time>2018-04-25T07:21:02Z</time>
      </trkpt>
      <trkpt lat="47.14845" lon="5.49043">
        <ele>277</ele>
        <time>2018-04-25T07:21:07Z</time>
      </trkpt>
      <trkpt lat="47.1485" lon="5.49044">
        <ele>277</ele>
        <time>2018-04-25T07:21:11Z</time>
      </trkpt>
      <trkpt lat="47.14864" lon="5.49049">
        <ele>276</ele>
        <time>2018-04-25T07:21:23Z</time>
      </trkpt>
      <trkpt lat="47.14869" lon="5.49051">
        <ele>276</ele>
        <time>2018-04-25T07:21:27Z</time>
      </trkpt>
      <trkpt lat="47.14885" lon="5.49056">
        <ele>276</ele>
        <time>2018-04-25T07:21:38Z</time>
      </trkpt>
      <trkpt lat="47.14896" lon="5.49058">
        <ele>273</ele>
        <time>2018-04-25T07:21:46Z</time>
      </trkpt>
      <trkpt lat="47.14901" lon="5.49058">
        <ele>273</ele>
        <time>2018-04-25T07:21:50Z</time>
      </trkpt>
      <trkpt lat="47.14917" lon="5.49058">
        <ele>275</ele>
        <time>2018-04-25T07:22:00Z</time>
      </trkpt>
      <trkpt lat="47.14921" lon="5.49057">
        <ele>274</ele>
        <time>2018-04-25T07:22:03Z</time>
      </trkpt>
      <trkpt lat="47.14927" lon="5.49056">
        <ele>274</ele>
        <time>2018-04-25T07:22:07Z</time>
      </trkpt>
      <trkpt lat="47.14953" lon="5.49046">
        <ele>272</ele>
        <time>2018-04-25T07:22:28Z</time>
      </trkpt>
      <trkpt lat="47.14958" lon="5.49044">
        <ele>272</ele>
        <time>2018-04-25T07:22:32Z</time>
      </trkpt>
      <trkpt lat="47.14962" lon="5.49041">
        <ele>271</ele>
        <time>2018-04-25T07:22:36Z</time>
      </trkpt>
      <trkpt lat="47.14967" lon="5.49038">
        <ele>271</ele>
        <time>2018-04-25T07:22:40Z</time>
      </trkpt>
      <trkpt lat="47.14976" lon="5.49032">
        <ele>269</ele>
        <time>2018-04-25T07:22:48Z</time>
      </trkpt>
      <trkpt lat="47.14981" lon="5.4903">
        <ele>269</ele>
        <time>2018-04-25T07:22:51Z</time>
      </trkpt>
      <trkpt lat="47.14986" lon="5.49027">
        <ele>269</ele>
        <time>2018-04-25T07:22:55Z</time>
      </trkpt>
      <trkpt lat="47.15004" lon="5.49011">
        <ele>265</ele>
        <time>2018-04-25T07:23:14Z</time>
      </trkpt>
      <trkpt lat="47.15009" lon="5.49007">
        <ele>265</ele>
        <time>2018-04-25T07:23:18Z</time>
      </trkpt>
      <trkpt lat="47.15014" lon="5.49004">
        <ele>265</ele>
        <time>2018-04-25T07:23:22Z</time>
      </trkpt>
      <trkpt lat="47.15019" lon="5.49">
        <ele>265</ele>
        <time>2018-04-25T07:23:26Z</time>
      </trkpt>
      <trkpt lat="47.1503" lon="5.48988">
        <ele>263</ele>
        <time>2018-04-25T07:23:39Z</time>
      </trkpt>
      <trkpt lat="47.15034" lon="5.48984">
        <ele>263</ele>
        <time>2018-04-25T07:23:43Z</time>
      </trkpt>
      <trkpt lat="47.15038" lon="5.4898">
        <ele>263</ele>
        <time>2018-04-25T07:23:47Z</time>
      </trkpt>
      <trkpt lat="47.15043" lon="5.48976">
        <ele>262</ele>
        <time>2018-04-25T07:23:51Z</time>
      </trkpt>
      <trkpt lat="47.15048" lon="5.48973">
        <ele>263</ele>
        <time>2018-04-25T07:23:55Z</time>
      </trkpt>
      <trkpt lat="47.15054" lon="5.48969">
        <ele>262</ele>
        <time>2018-04-25T07:23:59Z</time>
      </trkpt>
      <trkpt lat="47.15058" lon="5.48966">
        <ele>262</ele>
        <time>2018-04-25T07:24:02Z</time>
      </trkpt>
      <trkpt lat="47.15062" lon="5.48963">
        <ele>262</ele>
        <time>2018-04-25T07:24:05Z</time>
      </trkpt>
      <trkpt lat="47.15068" lon="5.48959">
        <ele>262</ele>
        <time>2018-04-25T07:24:09Z</time>
      </trkpt>
      <trkpt lat="47.15072" lon="5.48956">
        <ele>261</ele>
        <time>2018-04-25T07:24:12Z</time>
      </trkpt>
      <trkpt lat="47.15081" lon="5.48947">
        <ele>261</ele>
        <time>2018-04-25T07:24:20Z</time>
      </trkpt>
      <trkpt lat="47.15084" lon="5.48941">
        <ele>261</ele>
        <time>2018-04-25T07:24:25Z</time>
      </trkpt>
      <trkpt lat="47.15087" lon="5.48935">
        <ele>261</ele>
        <time>2018-04-25T07:24:29Z</time>
      </trkpt>
      <trkpt lat="47.15092" lon="5.48931">
        <ele>261</ele>
        <time>2018-04-25T07:24:33Z</time>
      </trkpt>
      <trkpt lat="47.15095" lon="5.48927">
        <ele>261</ele>
        <time>2018-04-25T07:24:36Z</time>
      </trkpt>
      <trkpt lat="47.15099" lon="5.48921">
        <ele>260</ele>
        <time>2018-04-25T07:24:41Z</time>
      </trkpt>
      <trkpt lat="47.15104" lon="5.48916">
        <ele>259</ele>
        <time>2018-04-25T07:24:45Z</time>
      </trkpt>
      <trkpt lat="47.15113" lon="5.48907">
        <ele>260</ele>
        <time>2018-04-25T07:24:53Z</time>
      </trkpt>
      <trkpt lat="47.15117" lon="5.48903">
        <ele>260</ele>
        <time>2018-04-25T07:24:57Z</time>
      </trkpt>
      <trkpt lat="47.15121" lon="5.48898">
        <ele>260</ele>
        <time>2018-04-25T07:25:01Z</time>
      </trkpt>
      <trkpt lat="47.15125" lon="5.48894">
        <ele>260</ele>
        <time>2018-04-25T07:25:04Z</time>
      </trkpt>
      <trkpt lat="47.15137" lon="5.48881">
        <ele>259</ele>
        <time>2018-04-25T07:25:15Z</time>
      </trkpt>
      <trkpt lat="47.15146" lon="5.4887">
        <ele>262</ele>
        <time>2018-04-25T07:25:24Z</time>
      </trkpt>
      <trkpt lat="47.15152" lon="5.48863">
        <ele>262</ele>
        <time>2018-04-25T07:25:30Z</time>
      </trkpt>
      <trkpt lat="47.15155" lon="5.48855">
        <ele>262</ele>
        <time>2018-04-25T07:25:38Z</time>
      </trkpt>
      <trkpt lat="47.15174" lon="5.4883">
        <ele>264</ele>
        <time>2018-04-25T07:25:57Z</time>
      </trkpt>
      <trkpt lat="47.15182" lon="5.4882">
        <ele>264</ele>
        <time>2018-04-25T07:26:05Z</time>
      </trkpt>
      <trkpt lat="47.15186" lon="5.48815">
        <ele>263</ele>
        <time>2018-04-25T07:26:09Z</time>
      </trkpt>
      <trkpt lat="47.15191" lon="5.4881">
        <ele>263</ele>
        <time>2018-04-25T07:26:13Z</time>
      </trkpt>
      <trkpt lat="47.15194" lon="5.48805">
        <ele>263</ele>
        <time>2018-04-25T07:26:17Z</time>
      </trkpt>
      <trkpt lat="47.15201" lon="5.48795">
        <ele>262</ele>
        <time>2018-04-25T07:26:25Z</time>
      </trkpt>
      <trkpt lat="47.15205" lon="5.4879">
        <ele>262</ele>
        <time>2018-04-25T07:26:29Z</time>
      </trkpt>
      <trkpt lat="47.15208" lon="5.48785">
        <ele>261</ele>
        <time>2018-04-25T07:26:33Z</time>
      </trkpt>
      <trkpt lat="47.15217" lon="5.48776">
        <ele>261</ele>
        <time>2018-04-25T07:26:41Z</time>
      </trkpt>
      <trkpt lat="47.15225" lon="5.48767">
        <ele>262</ele>
        <time>2018-04-25T07:26:49Z</time>
      </trkpt>
      <trkpt lat="47.1523" lon="5.48763">
        <ele>262</ele>
        <time>2018-04-25T07:26:53Z</time>
      </trkpt>
      <trkpt lat="47.15234" lon="5.48759">
        <ele>262</ele>
        <time>2018-04-25T07:26:57Z</time>
      </trkpt>
      <trkpt lat="47.15238" lon="5.48755">
        <ele>263</ele>
        <time>2018-04-25T07:27:01Z</time>
      </trkpt>
      <trkpt lat="47.15242" lon="5.48751">
        <ele>263</ele>
        <time>2018-04-25T07:27:05Z</time>
      </trkpt>
      <trkpt lat="47.15251" lon="5.48744">
        <ele>262</ele>
        <time>2018-04-25T07:27:12Z</time>
      </trkpt>
      <trkpt lat="47.15261" lon="5.48737">
        <ele>261</ele>
        <time>2018-04-25T07:27:21Z</time>
      </trkpt>
      <trkpt lat="47.15275" lon="5.48726">
        <ele>261</ele>
        <time>2018-04-25T07:27:34Z</time>
      </trkpt>
      <trkpt lat="47.15285" lon="5.48719">
        <ele>261</ele>
        <time>2018-04-25T07:27:42Z</time>
      </trkpt>
      <trkpt lat="47.15289" lon="5.48715">
        <ele>262</ele>
        <time>2018-04-25T07:27:45Z</time>
      </trkpt>
      <trkpt lat="47.15293" lon="5.48711">
        <ele>262</ele>
        <time>2018-04-25T07:27:49Z</time>
      </trkpt>
      <trkpt lat="47.15298" lon="5.48707">
        <ele>263</ele>
        <time>2018-04-25T07:27:53Z</time>
      </trkpt>
      <trkpt lat="47.15302" lon="5.48703">
        <ele>263</ele>
        <time>2018-04-25T07:27:57Z</time>
      </trkpt>
      <trkpt lat="47.15306" lon="5.48699">
        <ele>262</ele>
        <time>2018-04-25T07:28:01Z</time>
      </trkpt>
      <trkpt lat="47.15309" lon="5.48695">
        <ele>262</ele>
        <time>2018-04-25T07:28:05Z</time>
      </trkpt>
      <trkpt lat="47.15313" lon="5.4869">
        <ele>263</ele>
        <time>2018-04-25T07:28:09Z</time>
      </trkpt>
      <trkpt lat="47.15316" lon="5.48684">
        <ele>264</ele>
        <time>2018-04-25T07:28:13Z</time>
      </trkpt>
      <trkpt lat="47.15315" lon="5.48677">
        <ele>264</ele>
        <time>2018-04-25T07:28:17Z</time>
      </trkpt>
      <trkpt lat="47.15313" lon="5.48655">
        <ele>262</ele>
        <time>2018-04-25T07:28:28Z</time>
      </trkpt>
      <trkpt lat="47.15316" lon="5.48627">
        <ele>259</ele>
        <time>2018-04-25T07:28:44Z</time>
      </trkpt>
      <trkpt lat="47.15317" lon="5.48619">
        <ele>257</ele>
        <time>2018-04-25T07:28:49Z</time>
      </trkpt>
      <trkpt lat="47.15319" lon="5.48612">
        <ele>257</ele>
        <time>2018-04-25T07:28:53Z</time>
      </trkpt>
      <trkpt lat="47.15323" lon="5.48599">
        <ele>255</ele>
        <time>2018-04-25T07:29:01Z</time>
      </trkpt>
      <trkpt lat="47.15325" lon="5.48593">
        <ele>256</ele>
        <time>2018-04-25T07:29:05Z</time>
      </trkpt>
      <trkpt lat="47.15331" lon="5.4858">
        <ele>255</ele>
        <time>2018-04-25T07:29:13Z</time>
      </trkpt>
      <trkpt lat="47.15337" lon="5.48569">
        <ele>255</ele>
        <time>2018-04-25T07:29:21Z</time>
      </trkpt>
      <trkpt lat="47.15353" lon="5.48551">
        <ele>251</ele>
        <time>2018-04-25T07:29:38Z</time>
      </trkpt>
      <trkpt lat="47.15359" lon="5.48541">
        <ele>252</ele>
        <time>2018-04-25T07:29:47Z</time>
      </trkpt>
      <trkpt lat="47.15365" lon="5.4853">
        <ele>251</ele>
        <time>2018-04-25T07:29:57Z</time>
      </trkpt>
      <trkpt lat="47.15373" lon="5.48517">
        <ele>251</ele>
        <time>2018-04-25T07:30:07Z</time>
      </trkpt>
      <trkpt lat="47.15391" lon="5.48506">
        <ele>253</ele>
        <time>2018-04-25T07:30:18Z</time>
      </trkpt>
      <trkpt lat="47.15397" lon="5.48494">
        <ele>255</ele>
        <time>2018-04-25T07:30:26Z</time>
      </trkpt>
      <trkpt lat="47.15403" lon="5.48483">
        <ele>254</ele>
        <time>2018-04-25T07:30:33Z</time>
      </trkpt>
      <trkpt lat="47.15405" lon="5.4847">
        <ele>252</ele>
        <time>2018-04-25T07:30:40Z</time>
      </trkpt>
      <trkpt lat="47.15411" lon="5.48458">
        <ele>253</ele>
        <time>2018-04-25T07:30:47Z</time>
      </trkpt>
      <trkpt lat="47.15415" lon="5.48445">
        <ele>252</ele>
        <time>2018-04-25T07:30:56Z</time>
      </trkpt>
      <trkpt lat="47.15432" lon="5.48403">
        <ele>254</ele>
        <time>2018-04-25T07:31:22Z</time>
      </trkpt>
      <trkpt lat="47.15438" lon="5.48393">
        <ele>256</ele>
        <time>2018-04-25T07:31:29Z</time>
      </trkpt>
      <trkpt lat="47.15439" lon="5.4838">
        <ele>255</ele>
        <time>2018-04-25T07:31:37Z</time>
      </trkpt>
      <trkpt lat="47.15438" lon="5.48364">
        <ele>254</ele>
        <time>2018-04-25T07:31:43Z</time>
      </trkpt>
      <trkpt lat="47.15447" lon="5.48354">
        <ele>252</ele>
        <time>2018-04-25T07:31:53Z</time>
      </trkpt>
      <trkpt lat="47.15457" lon="5.48355">
        <ele>251</ele>
        <time>2018-04-25T07:31:59Z</time>
      </trkpt>
      <trkpt lat="47.15466" lon="5.4836">
        <ele>252</ele>
        <time>2018-04-25T07:32:06Z</time>
      </trkpt>
      <trkpt lat="47.15475" lon="5.48367">
        <ele>251</ele>
        <time>2018-04-25T07:32:14Z</time>
      </trkpt>
      <trkpt lat="47.15484" lon="5.48373">
        <ele>251</ele>
        <time>2018-04-25T07:32:21Z</time>
      </trkpt>
      <trkpt lat="47.15494" lon="5.48376">
        <ele>251</ele>
        <time>2018-04-25T07:32:29Z</time>
      </trkpt>
      <trkpt lat="47.15502" lon="5.48385">
        <ele>251</ele>
        <time>2018-04-25T07:32:41Z</time>
      </trkpt>
      <trkpt lat="47.1552" lon="5.48394">
        <ele>251</ele>
        <time>2018-04-25T07:32:58Z</time>
      </trkpt>
      <trkpt lat="47.15528" lon="5.48402">
        <ele>250</ele>
        <time>2018-04-25T07:33:06Z</time>
      </trkpt>
      <trkpt lat="47.15537" lon="5.48409">
        <ele>253</ele>
        <time>2018-04-25T07:33:14Z</time>
      </trkpt>
      <trkpt lat="47.15554" lon="5.4842">
        <ele>253</ele>
        <time>2018-04-25T07:33:31Z</time>
      </trkpt>
      <trkpt lat="47.15564" lon="5.48415">
        <ele>255</ele>
        <time>2018-04-25T07:33:39Z</time>
      </trkpt>
      <trkpt lat="47.15571" lon="5.48406">
        <ele>255</ele>
        <time>2018-04-25T07:33:47Z</time>
      </trkpt>
      <trkpt lat="47.15577" lon="5.48396">
        <ele>254</ele>
        <time>2018-04-25T07:33:55Z</time>
      </trkpt>
      <trkpt lat="47.15585" lon="5.48388">
        <ele>254</ele>
        <time>2018-04-25T07:34:04Z</time>
      </trkpt>
      <trkpt lat="47.1559" lon="5.48378">
        <ele>254</ele>
        <time>2018-04-25T07:34:13Z</time>
      </trkpt>
      <trkpt lat="47.15602" lon="5.4838">
        <ele>255</ele>
        <time>2018-04-25T07:34:23Z</time>
      </trkpt>
      <trkpt lat="47.15637" lon="5.48401">
        <ele>261</ele>
        <time>2018-04-25T07:34:54Z</time>
      </trkpt>
      <trkpt lat="47.15649" lon="5.48403">
        <ele>261</ele>
        <time>2018-04-25T07:35:04Z</time>
      </trkpt>
      <trkpt lat="47.15657" lon="5.48409">
        <ele>261</ele>
        <time>2018-04-25T07:35:11Z</time>
      </trkpt>
      <trkpt lat="47.15677" lon="5.48431">
        <ele>265</ele>
        <time>2018-04-25T07:35:34Z</time>
      </trkpt>
      <trkpt lat="47.15684" lon="5.48442">
        <ele>264</ele>
        <time>2018-04-25T07:35:42Z</time>
      </trkpt>
      <trkpt lat="47.15687" lon="5.48456">
        <ele>264</ele>
        <time>2018-04-25T07:35:50Z</time>
      </trkpt>
      <trkpt lat="47.15691" lon="5.48468">
        <ele>265</ele>
        <time>2018-04-25T07:35:58Z</time>
      </trkpt>
      <trkpt lat="47.15698" lon="5.48479">
        <ele>266</ele>
        <time>2018-04-25T07:36:07Z</time>
      </trkpt>
      <trkpt lat="47.15704" lon="5.4849">
        <ele>265</ele>
        <time>2018-04-25T07:36:16Z</time>
      </trkpt>
      <trkpt lat="47.15725" lon="5.4852">
        <ele>271</ele>
        <time>2018-04-25T07:36:42Z</time>
      </trkpt>
      <trkpt lat="47.15732" lon="5.48529">
        <ele>271</ele>
        <time>2018-04-25T07:36:50Z</time>
      </trkpt>
      <trkpt lat="47.15755" lon="5.48555">
        <ele>275</ele>
        <time>2018-04-25T07:37:14Z</time>
      </trkpt>
      <trkpt lat="47.15764" lon="5.48566">
        <ele>275</ele>
        <time>2018-04-25T07:39:10Z</time>
      </trkpt>
      <trkpt lat="47.15774" lon="5.48582">
        <ele>277</ele>
        <time>2018-04-25T07:40:04Z</time>
      </trkpt>
      <trkpt lat="47.15783" lon="5.48588">
        <ele>276</ele>
        <time>2018-04-25T07:40:12Z</time>
      </trkpt>
      <trkpt lat="47.15797" lon="5.48604">
        <ele>278</ele>
        <time>2018-04-25T07:40:26Z</time>
      </trkpt>
      <trkpt lat="47.15804" lon="5.48614">
        <ele>278</ele>
        <time>2018-04-25T07:40:34Z</time>
      </trkpt>
      <trkpt lat="47.1581" lon="5.48626">
        <ele>277</ele>
        <time>2018-04-25T07:40:42Z</time>
      </trkpt>
      <trkpt lat="47.15818" lon="5.48636">
        <ele>277</ele>
        <time>2018-04-25T07:40:50Z</time>
      </trkpt>
      <trkpt lat="47.15846" lon="5.48662">
        <ele>280</ele>
        <time>2018-04-25T07:41:15Z</time>
      </trkpt>
      <trkpt lat="47.15866" lon="5.48676">
        <ele>280</ele>
        <time>2018-04-25T07:41:31Z</time>
      </trkpt>
      <trkpt lat="47.15876" lon="5.48683">
        <ele>281</ele>
        <time>2018-04-25T07:41:39Z</time>
      </trkpt>
      <trkpt lat="47.1588" lon="5.48688">
        <ele>281</ele>
        <time>2018-04-25T07:41:43Z</time>
      </trkpt>
      <trkpt lat="47.15884" lon="5.48693">
        <ele>281</ele>
        <time>2018-04-25T07:41:47Z</time>
      </trkpt>
      <trkpt lat="47.15888" lon="5.48698">
        <ele>281</ele>
        <time>2018-04-25T07:41:51Z</time>
      </trkpt>
      <trkpt lat="47.15892" lon="5.48703">
        <ele>281</ele>
        <time>2018-04-25T07:41:55Z</time>
      </trkpt>
      <trkpt lat="47.15896" lon="5.48708">
        <ele>282</ele>
        <time>2018-04-25T07:41:59Z</time>
      </trkpt>
      <trkpt lat="47.159" lon="5.48713">
        <ele>282</ele>
        <time>2018-04-25T07:42:03Z</time>
      </trkpt>
      <trkpt lat="47.15904" lon="5.48718">
        <ele>282</ele>
        <time>2018-04-25T07:42:07Z</time>
      </trkpt>
      <trkpt lat="47.15913" lon="5.48734">
        <ele>282</ele>
        <time>2018-04-25T07:42:19Z</time>
      </trkpt>
      <trkpt lat="47.15918" lon="5.48747">
        <ele>282</ele>
        <time>2018-04-25T07:42:26Z</time>
      </trkpt>
      <trkpt lat="47.15925" lon="5.48757">
        <ele>283</ele>
        <time>2018-04-25T07:42:34Z</time>
      </trkpt>
      <trkpt lat="47.15933" lon="5.48764">
        <ele>283</ele>
        <time>2018-04-25T07:42:41Z</time>
      </trkpt>
      <trkpt lat="47.15941" lon="5.48772">
        <ele>283</ele>
        <time>2018-04-25T07:42:48Z</time>
      </trkpt>
      <trkpt lat="47.1595" lon="5.48779">
        <ele>284</ele>
        <time>2018-04-25T07:42:56Z</time>
      </trkpt>
      <trkpt lat="47.15956" lon="5.48782">
        <ele>284</ele>
        <time>2018-04-25T07:43:02Z</time>
      </trkpt>
      <trkpt lat="47.15966" lon="5.48786">
        <ele>285</ele>
        <time>2018-04-25T07:43:10Z</time>
      </trkpt>
      <trkpt lat="47.1597" lon="5.48788">
        <ele>285</ele>
        <time>2018-04-25T07:43:14Z</time>
      </trkpt>
      <trkpt lat="47.15976" lon="5.4879">
        <ele>286</ele>
        <time>2018-04-25T07:43:18Z</time>
      </trkpt>
      <trkpt lat="47.15981" lon="5.48792">
        <ele>286</ele>
        <time>2018-04-25T07:43:22Z</time>
      </trkpt>
      <trkpt lat="47.15986" lon="5.48794">
        <ele>286</ele>
        <time>2018-04-25T07:43:26Z</time>
      </trkpt>
      <trkpt lat="47.15994" lon="5.48797">
        <ele>286</ele>
        <time>2018-04-25T07:43:33Z</time>
      </trkpt>
      <trkpt lat="47.15999" lon="5.48799">
        <ele>285</ele>
        <time>2018-04-25T07:43:37Z</time>
      </trkpt>
      <trkpt lat="47.16004" lon="5.488">
        <ele>285</ele>
        <time>2018-04-25T07:43:41Z</time>
      </trkpt>
      <trkpt lat="47.16011" lon="5.48803">
        <ele>285</ele>
        <time>2018-04-25T07:43:48Z</time>
      </trkpt>
      <trkpt lat="47.16016" lon="5.48804">
        <ele>286</ele>
        <time>2018-04-25T07:43:51Z</time>
      </trkpt>
      <trkpt lat="47.16021" lon="5.48806">
        <ele>285</ele>
        <time>2018-04-25T07:43:54Z</time>
      </trkpt>
      <trkpt lat="47.16026" lon="5.48807">
        <ele>285</ele>
        <time>2018-04-25T07:43:57Z</time>
      </trkpt>
      <trkpt lat="47.16036" lon="5.48812">
        <ele>285</ele>
        <time>2018-04-25T07:44:05Z</time>
      </trkpt>
      <trkpt lat="47.16047" lon="5.48816">
        <ele>284</ele>
        <time>2018-04-25T07:44:14Z</time>
      </trkpt>
      <trkpt lat="47.16066" lon="5.48822">
        <ele>286</ele>
        <time>2018-04-25T07:44:28Z</time>
      </trkpt>
      <trkpt lat="47.16076" lon="5.48825">
        <ele>285</ele>
        <time>2018-04-25T07:44:36Z</time>
      </trkpt>
      <trkpt lat="47.16085" lon="5.48826">
        <ele>285</ele>
        <time>2018-04-25T07:44:43Z</time>
      </trkpt>
      <trkpt lat="47.16114" lon="5.48831">
        <ele>288</ele>
        <time>2018-04-25T07:45:08Z</time>
      </trkpt>
      <trkpt lat="47.16123" lon="5.48831">
        <ele>288</ele>
        <time>2018-04-25T07:45:17Z</time>
      </trkpt>
      <trkpt lat="47.16138" lon="5.48831">
        <ele>286</ele>
        <time>2018-04-25T07:46:27Z</time>
      </trkpt>
      <trkpt lat="47.16146" lon="5.48824">
        <ele>285</ele>
        <time>2018-04-25T07:46:36Z</time>
      </trkpt>
      <trkpt lat="47.16152" lon="5.48813">
        <ele>285</ele>
        <time>2018-04-25T07:46:46Z</time>
      </trkpt>
      <trkpt lat="47.16162" lon="5.48802">
        <ele>285</ele>
        <time>2018-04-25T07:47:01Z</time>
      </trkpt>
      <trkpt lat="47.16169" lon="5.48794">
        <ele>283</ele>
        <time>2018-04-25T07:47:10Z</time>
      </trkpt>
      <trkpt lat="47.16182" lon="5.48778">
        <ele>282</ele>
        <time>2018-04-25T07:47:28Z</time>
      </trkpt>
      <trkpt lat="47.16191" lon="5.48774">
        <ele>282</ele>
        <time>2018-04-25T07:47:35Z</time>
      </trkpt>
      <trkpt lat="47.16216" lon="5.48762">
        <ele>275</ele>
        <time>2018-04-25T07:48:03Z</time>
      </trkpt>
      <trkpt lat="47.16225" lon="5.4876">
        <ele>275</ele>
        <time>2018-04-25T07:48:11Z</time>
      </trkpt>
      <trkpt lat="47.16265" lon="5.48748">
        <ele>271</ele>
        <time>2018-04-25T07:48:43Z</time>
      </trkpt>
      <trkpt lat="47.1627" lon="5.48746">
        <ele>271</ele>
        <time>2018-04-25T07:48:47Z</time>
      </trkpt>
      <trkpt lat="47.16275" lon="5.48742">
        <ele>271</ele>
        <time>2018-04-25T07:48:52Z</time>
      </trkpt>
      <trkpt lat="47.16279" lon="5.48739">
        <ele>271</ele>
        <time>2018-04-25T07:48:56Z</time>
      </trkpt>
      <trkpt lat="47.16286" lon="5.48731">
        <ele>271</ele>
        <time>2018-04-25T07:49:04Z</time>
      </trkpt>
      <trkpt lat="47.16291" lon="5.48727">
        <ele>271</ele>
        <time>2018-04-25T07:49:09Z</time>
      </trkpt>
      <trkpt lat="47.16297" lon="5.48721">
        <ele>271</ele>
        <time>2018-04-25T07:49:18Z</time>
      </trkpt>
      <trkpt lat="47.16302" lon="5.48717">
        <ele>271</ele>
        <time>2018-04-25T07:49:23Z</time>
      </trkpt>
      <trkpt lat="47.16306" lon="5.48713">
        <ele>270</ele>
        <time>2018-04-25T07:49:28Z</time>
      </trkpt>
      <trkpt lat="47.16314" lon="5.48706">
        <ele>271</ele>
        <time>2018-04-25T07:49:36Z</time>
      </trkpt>
      <trkpt lat="47.16338" lon="5.48689">
        <ele>269</ele>
        <time>2018-04-25T07:49:59Z</time>
      </trkpt>
      <trkpt lat="47.16343" lon="5.48685">
        <ele>270</ele>
        <time>2018-04-25T07:50:04Z</time>
      </trkpt>
      <trkpt lat="47.16347" lon="5.48682">
        <ele>269</ele>
        <time>2018-04-25T07:50:08Z</time>
      </trkpt>
      <trkpt lat="47.16351" lon="5.48679">
        <ele>270</ele>
        <time>2018-04-25T07:50:11Z</time>
      </trkpt>
      <trkpt lat="47.16361" lon="5.48671">
        <ele>269</ele>
        <time>2018-04-25T07:50:19Z</time>
      </trkpt>
      <trkpt lat="47.16365" lon="5.48669">
        <ele>269</ele>
        <time>2018-04-25T07:50:22Z</time>
      </trkpt>
      <trkpt lat="47.1637" lon="5.48663">
        <ele>270</ele>
        <time>2018-04-25T07:50:29Z</time>
      </trkpt>
      <trkpt lat="47.16375" lon="5.4866">
        <ele>269</ele>
        <time>2018-04-25T07:50:32Z</time>
      </trkpt>
      <trkpt lat="47.1638" lon="5.48657">
        <ele>270</ele>
        <time>2018-04-25T07:50:35Z</time>
      </trkpt>
      <trkpt lat="47.16385" lon="5.48654">
        <ele>269</ele>
        <time>2018-04-25T07:50:38Z</time>
      </trkpt>
      <trkpt lat="47.1639" lon="5.48651">
        <ele>270</ele>
        <time>2018-04-25T07:50:41Z</time>
      </trkpt>
      <trkpt lat="47.16395" lon="5.48649">
        <ele>270</ele>
        <time>2018-04-25T07:50:44Z</time>
      </trkpt>
      <trkpt lat="47.164" lon="5.48647">
        <ele>269</ele>
        <time>2018-04-25T07:50:48Z</time>
      </trkpt>
      <trkpt lat="47.16404" lon="5.48645">
        <ele>270</ele>
        <time>2018-04-25T07:50:52Z</time>
      </trkpt>
      <trkpt lat="47.16408" lon="5.48643">
        <ele>270</ele>
        <time>2018-04-25T07:50:56Z</time>
      </trkpt>
      <trkpt lat="47.16413" lon="5.4864">
        <ele>271</ele>
        <time>2018-04-25T07:51:01Z</time>
      </trkpt>
      <trkpt lat="47.16422" lon="5.48633">
        <ele>266</ele>
        <time>2018-04-25T07:51:20Z</time>
      </trkpt>
      <trkpt lat="47.1642" lon="5.48619">
        <ele>267</ele>
        <time>2018-04-25T07:51:36Z</time>
      </trkpt>
      <trkpt lat="47.16431" lon="5.48614">
        <ele>267</ele>
        <time>2018-04-25T07:51:45Z</time>
      </trkpt>
      <trkpt lat="47.16438" lon="5.48604">
        <ele>267</ele>
        <time>2018-04-25T07:51:57Z</time>
      </trkpt>
      <trkpt lat="47.16447" lon="5.48597">
        <ele>267</ele>
        <time>2018-04-25T07:52:06Z</time>
      </trkpt>
      <trkpt lat="47.16457" lon="5.48581">
        <ele>268</ele>
        <time>2018-04-25T07:52:22Z</time>
      </trkpt>
      <trkpt lat="47.16478" lon="5.48575">
        <ele>263</ele>
        <time>2018-04-25T07:52:34Z</time>
      </trkpt>
      <trkpt lat="47.16491" lon="5.4857">
        <ele>264</ele>
        <time>2018-04-25T07:52:40Z</time>
      </trkpt>
      <trkpt lat="47.16496" lon="5.4856">
        <ele>265</ele>
        <time>2018-04-25T07:52:50Z</time>
      </trkpt>
      <trkpt lat="47.16505" lon="5.48545">
        <ele>267</ele>
        <time>2018-04-25T07:53:07Z</time>
      </trkpt>
      <trkpt lat="47.16513" lon="5.48537">
        <ele>265</ele>
        <time>2018-04-25T07:53:14Z</time>
      </trkpt>
      <trkpt lat="47.1652" lon="5.48525">
        <ele>264</ele>
        <time>2018-04-25T07:53:21Z</time>
      </trkpt>
      <trkpt lat="47.16526" lon="5.48515">
        <ele>262</ele>
        <time>2018-04-25T07:53:28Z</time>
      </trkpt>
      <trkpt lat="47.16531" lon="5.485">
        <ele>260</ele>
        <time>2018-04-25T07:53:44Z</time>
      </trkpt>
      <trkpt lat="47.16536" lon="5.48486">
        <ele>259</ele>
        <time>2018-04-25T07:53:53Z</time>
      </trkpt>
      <trkpt lat="47.16541" lon="5.48474">
        <ele>260</ele>
        <time>2018-04-25T07:54:00Z</time>
      </trkpt>
      <trkpt lat="47.16549" lon="5.48466">
        <ele>259</ele>
        <time>2018-04-25T07:54:08Z</time>
      </trkpt>
      <trkpt lat="47.1656" lon="5.48462">
        <ele>259</ele>
        <time>2018-04-25T07:54:14Z</time>
      </trkpt>
      <trkpt lat="47.16566" lon="5.48452">
        <ele>259</ele>
        <time>2018-04-25T07:54:17Z</time>
      </trkpt>
      <trkpt lat="47.16578" lon="5.48436">
        <ele>260</ele>
        <time>2018-04-25T07:54:37Z</time>
      </trkpt>
      <trkpt lat="47.16594" lon="5.48421">
        <ele>261</ele>
        <time>2018-04-25T07:54:49Z</time>
      </trkpt>
      <trkpt lat="47.16601" lon="5.48414">
        <ele>260</ele>
        <time>2018-04-25T07:54:58Z</time>
      </trkpt>
      <trkpt lat="47.16613" lon="5.48403">
        <ele>258</ele>
        <time>2018-04-25T07:55:13Z</time>
      </trkpt>
      <trkpt lat="47.16622" lon="5.48398">
        <ele>258</ele>
        <time>2018-04-25T07:55:20Z</time>
      </trkpt>
      <trkpt lat="47.16654" lon="5.48372">
        <ele>256</ele>
        <time>2018-04-25T07:55:51Z</time>
      </trkpt>
      <trkpt lat="47.16662" lon="5.48356">
        <ele>256</ele>
        <time>2018-04-25T07:56:10Z</time>
      </trkpt>
      <trkpt lat="47.16672" lon="5.48354">
        <ele>255</ele>
        <time>2018-04-25T07:56:15Z</time>
      </trkpt>
      <trkpt lat="47.16683" lon="5.48348">
        <ele>256</ele>
        <time>2018-04-25T07:56:27Z</time>
      </trkpt>
      <trkpt lat="47.16692" lon="5.4834">
        <ele>255</ele>
        <time>2018-04-25T07:56:32Z</time>
      </trkpt>
      <trkpt lat="47.16697" lon="5.48324">
        <ele>257</ele>
        <time>2018-04-25T07:56:46Z</time>
      </trkpt>
      <trkpt lat="47.16718" lon="5.48308">
        <ele>256</ele>
        <time>2018-04-25T07:57:17Z</time>
      </trkpt>
      <trkpt lat="47.1672" lon="5.48306">
        <ele>249</ele>
        <time>2018-04-25T07:58:28Z</time>
      </trkpt>
      <trkpt lat="47.16734" lon="5.48299">
        <ele>256</ele>
        <time>2018-04-25T07:58:51Z</time>
      </trkpt>
      <trkpt lat="47.16724" lon="5.48294">
        <ele>251</ele>
        <time>2018-04-25T08:00:01Z</time>
      </trkpt>
      <trkpt lat="47.16724" lon="5.48292">
        <ele>260</ele>
        <time>2018-04-25T08:01:08Z</time>
      </trkpt>
      <trkpt lat="47.16737" lon="5.4828">
        <ele>250</ele>
        <time>2018-04-25T08:03:38Z</time>
      </trkpt>
      <trkpt lat="47.16743" lon="5.4827">
        <ele>249</ele>
        <time>2018-04-25T08:03:46Z</time>
      </trkpt>
      <trkpt lat="47.1675" lon="5.48261">
        <ele>249</ele>
        <time>2018-04-25T08:03:52Z</time>
      </trkpt>
      <trkpt lat="47.16759" lon="5.48255">
        <ele>248</ele>
        <time>2018-04-25T08:04:00Z</time>
      </trkpt>
      <trkpt lat="47.16764" lon="5.48243">
        <ele>250</ele>
        <time>2018-04-25T08:04:13Z</time>
      </trkpt>
      <trkpt lat="47.16787" lon="5.48219">
        <ele>247</ele>
        <time>2018-04-25T08:04:34Z</time>
      </trkpt>
      <trkpt lat="47.16803" lon="5.48199">
        <ele>247</ele>
        <time>2018-04-25T08:04:53Z</time>
      </trkpt>
      <trkpt lat="47.16812" lon="5.48191">
        <ele>248</ele>
        <time>2018-04-25T08:05:00Z</time>
      </trkpt>
      <trkpt lat="47.16817" lon="5.48179">
        <ele>247</ele>
        <time>2018-04-25T08:05:08Z</time>
      </trkpt>
      <trkpt lat="47.16825" lon="5.48169">
        <ele>247</ele>
        <time>2018-04-25T08:05:15Z</time>
      </trkpt>
      <trkpt lat="47.16832" lon="5.48159">
        <ele>246</ele>
        <time>2018-04-25T08:05:23Z</time>
      </trkpt>
      <trkpt lat="47.16839" lon="5.48149">
        <ele>245</ele>
        <time>2018-04-25T08:05:32Z</time>
      </trkpt>
      <trkpt lat="47.1686" lon="5.4812">
        <ele>241</ele>
        <time>2018-04-25T08:05:56Z</time>
      </trkpt>
      <trkpt lat="47.16869" lon="5.48115">
        <ele>241</ele>
        <time>2018-04-25T08:06:04Z</time>
      </trkpt>
      <trkpt lat="47.16877" lon="5.48112">
        <ele>241</ele>
        <time>2018-04-25T08:06:13Z</time>
      </trkpt>
      <trkpt lat="47.16907" lon="5.48102">
        <ele>237</ele>
        <time>2018-04-25T08:06:44Z</time>
      </trkpt>
      <trkpt lat="47.16917" lon="5.48099">
        <ele>236</ele>
        <time>2018-04-25T08:06:52Z</time>
      </trkpt>
      <trkpt lat="47.16926" lon="5.48096">
        <ele>237</ele>
        <time>2018-04-25T08:06:59Z</time>
      </trkpt>
      <trkpt lat="47.16935" lon="5.48089">
        <ele>237</ele>
        <time>2018-04-25T08:07:07Z</time>
      </trkpt>
      <trkpt lat="47.16944" lon="5.48085">
        <ele>235</ele>
        <time>2018-04-25T08:07:15Z</time>
      </trkpt>
      <trkpt lat="47.16952" lon="5.48079">
        <ele>234</ele>
        <time>2018-04-25T08:07:22Z</time>
      </trkpt>
      <trkpt lat="47.16971" lon="5.48069">
        <ele>232</ele>
        <time>2018-04-25T08:07:35Z</time>
      </trkpt>
      <trkpt lat="47.16989" lon="5.4806">
        <ele>231</ele>
        <time>2018-04-25T08:07:51Z</time>
      </trkpt>
      <trkpt lat="47.16998" lon="5.48056">
        <ele>232</ele>
        <time>2018-04-25T08:07:58Z</time>
      </trkpt>
      <trkpt lat="47.17008" lon="5.48053">
        <ele>230</ele>
        <time>2018-04-25T08:08:06Z</time>
      </trkpt>
      <trkpt lat="47.17017" lon="5.48049">
        <ele>230</ele>
        <time>2018-04-25T08:08:12Z</time>
      </trkpt>
      <trkpt lat="47.17026" lon="5.48046">
        <ele>230</ele>
        <time>2018-04-25T08:08:19Z</time>
      </trkpt>
      <trkpt lat="47.17036" lon="5.48043">
        <ele>229</ele>
        <time>2018-04-25T08:08:27Z</time>
      </trkpt>
      <trkpt lat="47.17045" lon="5.48041">
        <ele>230</ele>
        <time>2018-04-25T08:08:35Z</time>
      </trkpt>
      <trkpt lat="47.17074" lon="5.48025">
        <ele>226</ele>
        <time>2018-04-25T08:09:02Z</time>
      </trkpt>
      <trkpt lat="47.17082" lon="5.48017">
        <ele>226</ele>
        <time>2018-04-25T08:09:11Z</time>
      </trkpt>
      <trkpt lat="47.17098" lon="5.48001">
        <ele>224</ele>
        <time>2018-04-25T08:09:27Z</time>
      </trkpt>
      <trkpt lat="47.17106" lon="5.47992">
        <ele>224</ele>
        <time>2018-04-25T08:09:36Z</time>
      </trkpt>
      <trkpt lat="47.17114" lon="5.47983">
        <ele>223</ele>
        <time>2018-04-25T08:09:44Z</time>
      </trkpt>
      <trkpt lat="47.17122" lon="5.47976">
        <ele>223</ele>
        <time>2018-04-25T08:09:51Z</time>
      </trkpt>
      <trkpt lat="47.1713" lon="5.47968">
        <ele>222</ele>
        <time>2018-04-25T08:09:59Z</time>
      </trkpt>
      <trkpt lat="47.17139" lon="5.47964">
        <ele>222</ele>
        <time>2018-04-25T08:10:06Z</time>
      </trkpt>
      <trkpt lat="47.17178" lon="5.47957">
        <ele>225</ele>
        <time>2018-04-25T08:10:34Z</time>
      </trkpt>
      <trkpt lat="47.17187" lon="5.47954">
        <ele>224</ele>
        <time>2018-04-25T08:10:41Z</time>
      </trkpt>
      <trkpt lat="47.17196" lon="5.47949">
        <ele>225</ele>
        <time>2018-04-25T08:10:48Z</time>
      </trkpt>
      <trkpt lat="47.17205" lon="5.47945">
        <ele>223</ele>
        <time>2018-04-25T08:10:55Z</time>
      </trkpt>
      <trkpt lat="47.17223" lon="5.4793">
        <ele>223</ele>
        <time>2018-04-25T08:11:13Z</time>
      </trkpt>
      <trkpt lat="47.1723" lon="5.47924">
        <ele>224</ele>
        <time>2018-04-25T08:11:21Z</time>
      </trkpt>
      <trkpt lat="47.17236" lon="5.47921">
        <ele>226</ele>
        <time>2018-04-25T08:11:33Z</time>
      </trkpt>
      <trkpt lat="47.17241" lon="5.4792">
        <ele>226</ele>
        <time>2018-04-25T08:11:44Z</time>
      </trkpt>
      <trkpt lat="47.17246" lon="5.47921">
        <ele>225</ele>
        <time>2018-04-25T08:11:50Z</time>
      </trkpt>
      <trkpt lat="47.17252" lon="5.4792">
        <ele>224</ele>
        <time>2018-04-25T08:11:55Z</time>
      </trkpt>
      <trkpt lat="47.17256" lon="5.4792">
        <ele>224</ele>
        <time>2018-04-25T08:11:59Z</time>
      </trkpt>
      <trkpt lat="47.17262" lon="5.4792">
        <ele>223</ele>
        <time>2018-04-25T08:12:04Z</time>
      </trkpt>
      <trkpt lat="47.17268" lon="5.4792">
        <ele>222</ele>
        <time>2018-04-25T08:12:11Z</time>
      </trkpt>
      <trkpt lat="47.17279" lon="5.47917">
        <ele>221</ele>
        <time>2018-04-25T08:12:21Z</time>
      </trkpt>
      <trkpt lat="47.17284" lon="5.47917">
        <ele>220</ele>
        <time>2018-04-25T08:12:25Z</time>
      </trkpt>
      <trkpt lat="47.17311" lon="5.47912">
        <ele>219</ele>
        <time>2018-04-25T08:12:46Z</time>
      </trkpt>
      <trkpt lat="47.17339" lon="5.47901">
        <ele>221</ele>
        <time>2018-04-25T08:13:08Z</time>
      </trkpt>
      <trkpt lat="47.17347" lon="5.47894">
        <ele>222</ele>
        <time>2018-04-25T08:13:16Z</time>
      </trkpt>
      <trkpt lat="47.17371" lon="5.4787">
        <ele>222</ele>
        <time>2018-04-25T08:13:43Z</time>
      </trkpt>
      <trkpt lat="47.1738" lon="5.47862">
        <ele>221</ele>
        <time>2018-04-25T08:13:51Z</time>
      </trkpt>
      <trkpt lat="47.17396" lon="5.47844">
        <ele>220</ele>
        <time>2018-04-25T08:14:09Z</time>
      </trkpt>
      <trkpt lat="47.17402" lon="5.47835">
        <ele>219</ele>
        <time>2018-04-25T08:14:17Z</time>
      </trkpt>
      <trkpt lat="47.17407" lon="5.47821">
        <ele>219</ele>
        <time>2018-04-25T08:14:29Z</time>
      </trkpt>
      <trkpt lat="47.17415" lon="5.47813">
        <ele>219</ele>
        <time>2018-04-25T08:14:38Z</time>
      </trkpt>
      <trkpt lat="47.17425" lon="5.47807">
        <ele>218</ele>
        <time>2018-04-25T08:14:46Z</time>
      </trkpt>
      <trkpt lat="47.17441" lon="5.47793">
        <ele>222</ele>
        <time>2018-04-25T08:15:02Z</time>
      </trkpt>
      <trkpt lat="47.17454" lon="5.47773">
        <ele>222</ele>
        <time>2018-04-25T08:15:19Z</time>
      </trkpt>
      <trkpt lat="47.17482" lon="5.4775">
        <ele>222</ele>
        <time>2018-04-25T08:15:50Z</time>
      </trkpt>
      <trkpt lat="47.1749" lon="5.47742">
        <ele>221</ele>
        <time>2018-04-25T08:15:59Z</time>
      </trkpt>
      <trkpt lat="47.17489" lon="5.47767">
        <ele>221</ele>
        <time>2018-04-25T08:16:21Z</time>
      </trkpt>
      <trkpt lat="47.17488" lon="5.47781">
        <ele>220</ele>
        <time>2018-04-25T08:16:29Z</time>
      </trkpt>
      <trkpt lat="47.17484" lon="5.47795">
        <ele>220</ele>
        <time>2018-04-25T08:16:36Z</time>
      </trkpt>
      <trkpt lat="47.1748" lon="5.47807">
        <ele>220</ele>
        <time>2018-04-25T08:16:44Z</time>
      </trkpt>
      <trkpt lat="47.17472" lon="5.47848">
        <ele>218</ele>
        <time>2018-04-25T08:17:08Z</time>
      </trkpt>
      <trkpt lat="47.17472" lon="5.47863">
        <ele>219</ele>
        <time>2018-04-25T08:17:16Z</time>
      </trkpt>
      <trkpt lat="47.17471" lon="5.47877">
        <ele>217</ele>
        <time>2018-04-25T08:17:26Z</time>
      </trkpt>
      <trkpt lat="47.1746" lon="5.47898">
        <ele>217</ele>
        <time>2018-04-25T08:17:45Z</time>
      </trkpt>
      <trkpt lat="47.17452" lon="5.47906">
        <ele>217</ele>
        <time>2018-04-25T08:17:53Z</time>
      </trkpt>
      <trkpt lat="47.17445" lon="5.47918">
        <ele>216</ele>
        <time>2018-04-25T08:18:01Z</time>
      </trkpt>
      <trkpt lat="47.1744" lon="5.47929">
        <ele>217</ele>
        <time>2018-04-25T08:18:08Z</time>
      </trkpt>
      <trkpt lat="47.1742" lon="5.47978">
        <ele>212</ele>
        <time>2018-04-25T08:18:40Z</time>
      </trkpt>
      <trkpt lat="47.17412" lon="5.48005">
        <ele>211</ele>
        <time>2018-04-25T08:18:54Z</time>
      </trkpt>
      <trkpt lat="47.17409" lon="5.48017">
        <ele>210</ele>
        <time>2018-04-25T08:19:00Z</time>
      </trkpt>
      <trkpt lat="47.17406" lon="5.48031">
        <ele>209</ele>
        <time>2018-04-25T08:19:07Z</time>
      </trkpt>
      <trkpt lat="47.17405" lon="5.48044">
        <ele>208</ele>
        <time>2018-04-25T08:19:14Z</time>
      </trkpt>
      <trkpt lat="47.174" lon="5.48084">
        <ele>212</ele>
        <time>2018-04-25T08:19:33Z</time>
      </trkpt>
      <trkpt lat="47.17401" lon="5.48098">
        <ele>212</ele>
        <time>2018-04-25T08:19:40Z</time>
      </trkpt>
      <trkpt lat="47.17396" lon="5.48115">
        <ele>215</ele>
        <time>2018-04-25T08:19:52Z</time>
      </trkpt>
      <trkpt lat="47.17391" lon="5.48126">
        <ele>214</ele>
        <time>2018-04-25T08:19:58Z</time>
      </trkpt>
      <trkpt lat="47.17378" lon="5.48149">
        <ele>216</ele>
        <time>2018-04-25T08:20:13Z</time>
      </trkpt>
      <trkpt lat="47.17376" lon="5.48162">
        <ele>218</ele>
        <time>2018-04-25T08:20:20Z</time>
      </trkpt>
      <trkpt lat="47.1737" lon="5.48173">
        <ele>219</ele>
        <time>2018-04-25T08:20:27Z</time>
      </trkpt>
      <trkpt lat="47.17366" lon="5.48185">
        <ele>218</ele>
        <time>2018-04-25T08:20:36Z</time>
      </trkpt>
      <trkpt lat="47.17356" lon="5.48208">
        <ele>220</ele>
        <time>2018-04-25T08:20:51Z</time>
      </trkpt>
      <trkpt lat="47.17335" lon="5.48255">
        <ele>220</ele>
        <time>2018-04-25T08:21:23Z</time>
      </trkpt>
      <trkpt lat="47.17315" lon="5.48302">
        <ele>221</ele>
        <time>2018-04-25T08:21:54Z</time>
      </trkpt>
      <trkpt lat="47.17311" lon="5.48315">
        <ele>222</ele>
        <time>2018-04-25T08:22:02Z</time>
      </trkpt>
      <trkpt lat="47.17304" lon="5.48341">
        <ele>224</ele>
        <time>2018-04-25T08:22:17Z</time>
      </trkpt>
      <trkpt lat="47.17301" lon="5.48354">
        <ele>224</ele>
        <time>2018-04-25T08:22:24Z</time>
      </trkpt>
      <trkpt lat="47.17298" lon="5.48381">
        <ele>225</ele>
        <time>2018-04-25T08:22:39Z</time>
      </trkpt>
      <trkpt lat="47.17296" lon="5.48394">
        <ele>224</ele>
        <time>2018-04-25T08:22:46Z</time>
      </trkpt>
      <trkpt lat="47.17292" lon="5.48423">
        <ele>226</ele>
        <time>2018-04-25T08:23:00Z</time>
      </trkpt>
      <trkpt lat="47.17294" lon="5.48437">
        <ele>226</ele>
        <time>2018-04-25T08:23:09Z</time>
      </trkpt>
      <trkpt lat="47.17297" lon="5.48449">
        <ele>226</ele>
        <time>2018-04-25T08:23:16Z</time>
      </trkpt>
      <trkpt lat="47.17302" lon="5.48461">
        <ele>225</ele>
        <time>2018-04-25T08:23:24Z</time>
      </trkpt>
      <trkpt lat="47.17309" lon="5.48472">
        <ele>225</ele>
        <time>2018-04-25T08:23:32Z</time>
      </trkpt>
      <trkpt lat="47.17314" lon="5.48483">
        <ele>226</ele>
        <time>2018-04-25T08:23:39Z</time>
      </trkpt>
      <trkpt lat="47.1732" lon="5.48496">
        <ele>227</ele>
        <time>2018-04-25T08:23:47Z</time>
      </trkpt>
      <trkpt lat="47.17323" lon="5.48509">
        <ele>229</ele>
        <time>2018-04-25T08:23:54Z</time>
      </trkpt>
      <trkpt lat="47.17326" lon="5.48522">
        <ele>228</ele>
        <time>2018-04-25T08:24:01Z</time>
      </trkpt>
      <trkpt lat="47.17328" lon="5.48536">
        <ele>229</ele>
        <time>2018-04-25T08:24:08Z</time>
      </trkpt>
      <trkpt lat="47.17325" lon="5.48564">
        <ele>229</ele>
        <time>2018-04-25T08:24:22Z</time>
      </trkpt>
      <trkpt lat="47.17319" lon="5.48593">
        <ele>232</ele>
        <time>2018-04-25T08:24:37Z</time>
      </trkpt>
      <trkpt lat="47.17317" lon="5.48606">
        <ele>232</ele>
        <time>2018-04-25T08:24:43Z</time>
      </trkpt>
      <trkpt lat="47.17309" lon="5.48661">
        <ele>237</ele>
        <time>2018-04-25T08:25:12Z</time>
      </trkpt>
      <trkpt lat="47.17306" lon="5.48674">
        <ele>237</ele>
        <time>2018-04-25T08:25:20Z</time>
      </trkpt>
      <trkpt lat="47.17305" lon="5.48687">
        <ele>235</ele>
        <time>2018-04-25T08:25:27Z</time>
      </trkpt>
      <trkpt lat="47.17301" lon="5.48715">
        <ele>236</ele>
        <time>2018-04-25T08:25:41Z</time>
      </trkpt>
      <trkpt lat="47.17296" lon="5.48785">
        <ele>242</ele>
        <time>2018-04-25T08:26:19Z</time>
      </trkpt>
      <trkpt lat="47.17294" lon="5.488">
        <ele>245</ele>
        <time>2018-04-25T08:26:27Z</time>
      </trkpt>
      <trkpt lat="47.17292" lon="5.48814">
        <ele>244</ele>
        <time>2018-04-25T08:26:34Z</time>
      </trkpt>
      <trkpt lat="47.17283" lon="5.48855">
        <ele>246</ele>
        <time>2018-04-25T08:26:55Z</time>
      </trkpt>
      <trkpt lat="47.1728" lon="5.4887">
        <ele>249</ele>
        <time>2018-04-25T08:27:06Z</time>
      </trkpt>
      <trkpt lat="47.17276" lon="5.48881">
        <ele>249</ele>
        <time>2018-04-25T08:27:13Z</time>
      </trkpt>
      <trkpt lat="47.17272" lon="5.48895">
        <ele>249</ele>
        <time>2018-04-25T08:27:21Z</time>
      </trkpt>
      <trkpt lat="47.17269" lon="5.48907">
        <ele>250</ele>
        <time>2018-04-25T08:27:28Z</time>
      </trkpt>
      <trkpt lat="47.17267" lon="5.48922">
        <ele>251</ele>
        <time>2018-04-25T08:27:36Z</time>
      </trkpt>
      <trkpt lat="47.17266" lon="5.4895">
        <ele>252</ele>
        <time>2018-04-25T08:27:52Z</time>
      </trkpt>
      <trkpt lat="47.17262" lon="5.48976">
        <ele>255</ele>
        <time>2018-04-25T08:28:05Z</time>
      </trkpt>
      <trkpt lat="47.17269" lon="5.48985">
        <ele>256</ele>
        <time>2018-04-25T08:28:14Z</time>
      </trkpt>
      <trkpt lat="47.17265" lon="5.49">
        <ele>255</ele>
        <time>2018-04-25T08:28:23Z</time>
      </trkpt>
      <trkpt lat="47.17252" lon="5.4902">
        <ele>256</ele>
        <time>2018-04-25T08:28:42Z</time>
      </trkpt>
      <trkpt lat="47.17239" lon="5.49031">
        <ele>258</ele>
        <time>2018-04-25T08:29:00Z</time>
      </trkpt>
      <trkpt lat="47.17235" lon="5.49034">
        <ele>259</ele>
        <time>2018-04-25T08:29:12Z</time>
      </trkpt>
      <trkpt lat="47.17232" lon="5.49041">
        <ele>259</ele>
        <time>2018-04-25T08:29:49Z</time>
      </trkpt>
      <trkpt lat="47.17219" lon="5.49051">
        <ele>259</ele>
        <time>2018-04-25T08:32:01Z</time>
      </trkpt>
      <trkpt lat="47.1721" lon="5.49053">
        <ele>258</ele>
        <time>2018-04-25T08:32:12Z</time>
      </trkpt>
      <trkpt lat="47.17199" lon="5.49057">
        <ele>259</ele>
        <time>2018-04-25T08:32:25Z</time>
      </trkpt>
      <trkpt lat="47.17185" lon="5.49063">
        <ele>259</ele>
        <time>2018-04-25T08:32:40Z</time>
      </trkpt>
      <trkpt lat="47.1714" lon="5.49067">
        <ele>260</ele>
        <time>2018-04-25T08:33:21Z</time>
      </trkpt>
      <trkpt lat="47.17119" lon="5.49067">
        <ele>259</ele>
        <time>2018-04-25T08:33:36Z</time>
      </trkpt>
      <trkpt lat="47.17093" lon="5.49068">
        <ele>260</ele>
        <time>2018-04-25T08:34:04Z</time>
      </trkpt>
      <trkpt lat="47.17084" lon="5.49072">
        <ele>259</ele>
        <time>2018-04-25T08:34:11Z</time>
      </trkpt>
      <trkpt lat="47.17056" lon="5.49077">
        <ele>258</ele>
        <time>2018-04-25T08:34:35Z</time>
      </trkpt>
      <trkpt lat="47.17046" lon="5.49083">
        <ele>256</ele>
        <time>2018-04-25T08:34:44Z</time>
      </trkpt>
      <trkpt lat="47.17036" lon="5.49084">
        <ele>256</ele>
        <time>2018-04-25T08:34:51Z</time>
      </trkpt>
      <trkpt lat="47.17028" lon="5.49089">
        <ele>255</ele>
        <time>2018-04-25T08:34:59Z</time>
      </trkpt>
      <trkpt lat="47.1701" lon="5.49097">
        <ele>254</ele>
        <time>2018-04-25T08:35:14Z</time>
      </trkpt>
      <trkpt lat="47.17001" lon="5.49098">
        <ele>254</ele>
        <time>2018-04-25T08:35:22Z</time>
      </trkpt>
      <trkpt lat="47.16992" lon="5.49102">
        <ele>254</ele>
        <time>2018-04-25T08:35:25Z</time>
      </trkpt>
      <trkpt lat="47.16988" lon="5.49114">
        <ele>251</ele>
        <time>2018-04-25T08:35:33Z</time>
      </trkpt>
      <trkpt lat="47.16978" lon="5.49115">
        <ele>249</ele>
        <time>2018-04-25T08:35:41Z</time>
      </trkpt>
      <trkpt lat="47.16969" lon="5.4913">
        <ele>249</ele>
        <time>2018-04-25T08:35:53Z</time>
      </trkpt>
      <trkpt lat="47.16964" lon="5.49142">
        <ele>247</ele>
        <time>2018-04-25T08:36:00Z</time>
      </trkpt>
      <trkpt lat="47.16967" lon="5.49155">
        <ele>247</ele>
        <time>2018-04-25T08:36:10Z</time>
      </trkpt>
      <trkpt lat="47.16961" lon="5.49166">
        <ele>246</ele>
        <time>2018-04-25T08:36:20Z</time>
      </trkpt>
      <trkpt lat="47.16958" lon="5.49181">
        <ele>245</ele>
        <time>2018-04-25T08:36:26Z</time>
      </trkpt>
      <trkpt lat="47.16949" lon="5.49191">
        <ele>246</ele>
        <time>2018-04-25T08:36:35Z</time>
      </trkpt>
      <trkpt lat="47.16944" lon="5.49205">
        <ele>246</ele>
        <time>2018-04-25T08:36:45Z</time>
      </trkpt>
      <trkpt lat="47.16944" lon="5.49219">
        <ele>245</ele>
        <time>2018-04-25T08:36:55Z</time>
      </trkpt>
      <trkpt lat="47.16936" lon="5.49231">
        <ele>245</ele>
        <time>2018-04-25T08:37:01Z</time>
      </trkpt>
      <trkpt lat="47.16923" lon="5.49249">
        <ele>246</ele>
        <time>2018-04-25T08:37:10Z</time>
      </trkpt>
      <trkpt lat="47.16921" lon="5.49262">
        <ele>246</ele>
        <time>2018-04-25T08:37:18Z</time>
      </trkpt>
      <trkpt lat="47.16915" lon="5.49277">
        <ele>246</ele>
        <time>2018-04-25T08:37:32Z</time>
      </trkpt>
      <trkpt lat="47.16906" lon="5.49295">
        <ele>246</ele>
        <time>2018-04-25T08:37:44Z</time>
      </trkpt>
      <trkpt lat="47.16899" lon="5.49304">
        <ele>246</ele>
        <time>2018-04-25T08:37:50Z</time>
      </trkpt>
      <trkpt lat="47.1689" lon="5.49311">
        <ele>245</ele>
        <time>2018-04-25T08:37:58Z</time>
      </trkpt>
      <trkpt lat="47.16876" lon="5.49327">
        <ele>243</ele>
        <time>2018-04-25T08:38:12Z</time>
      </trkpt>
      <trkpt lat="47.16852" lon="5.49344">
        <ele>241</ele>
        <time>2018-04-25T08:38:38Z</time>
      </trkpt>
      <trkpt lat="47.16832" lon="5.49348">
        <ele>239</ele>
        <time>2018-04-25T08:38:54Z</time>
      </trkpt>
      <trkpt lat="47.16802" lon="5.49376">
        <ele>238</ele>
        <time>2018-04-25T08:39:27Z</time>
      </trkpt>
      <trkpt lat="47.16795" lon="5.49387">
        <ele>237</ele>
        <time>2018-04-25T08:39:34Z</time>
      </trkpt>
      <trkpt lat="47.16788" lon="5.49393">
        <ele>237</ele>
        <time>2018-04-25T08:39:42Z</time>
      </trkpt>
      <trkpt lat="47.16774" lon="5.49411">
        <ele>236</ele>
        <time>2018-04-25T08:39:57Z</time>
      </trkpt>
      <trkpt lat="47.16763" lon="5.49413">
        <ele>236</ele>
        <time>2018-04-25T08:40:05Z</time>
      </trkpt>
      <trkpt lat="47.16754" lon="5.49418">
        <ele>235</ele>
        <time>2018-04-25T08:40:13Z</time>
      </trkpt>
      <trkpt lat="47.16732" lon="5.49422">
        <ele>235</ele>
        <time>2018-04-25T08:40:34Z</time>
      </trkpt>
      <trkpt lat="47.16722" lon="5.49419">
        <ele>234</ele>
        <time>2018-04-25T08:40:43Z</time>
      </trkpt>
      <trkpt lat="47.16712" lon="5.4942">
        <ele>234</ele>
        <time>2018-04-25T08:40:50Z</time>
      </trkpt>
      <trkpt lat="47.16684" lon="5.49412">
        <ele>235</ele>
        <time>2018-04-25T08:41:10Z</time>
      </trkpt>
      <trkpt lat="47.16675" lon="5.49416">
        <ele>234</ele>
        <time>2018-04-25T08:41:18Z</time>
      </trkpt>
      <trkpt lat="47.16667" lon="5.49424">
        <ele>232</ele>
        <time>2018-04-25T08:41:25Z</time>
      </trkpt>
      <trkpt lat="47.16651" lon="5.49436">
        <ele>231</ele>
        <time>2018-04-25T08:41:37Z</time>
      </trkpt>
      <trkpt lat="47.16645" lon="5.49446">
        <ele>230</ele>
        <time>2018-04-25T08:41:45Z</time>
      </trkpt>
      <trkpt lat="47.16641" lon="5.49465">
        <ele>232</ele>
        <time>2018-04-25T08:42:01Z</time>
      </trkpt>
      <trkpt lat="47.16636" lon="5.49478">
        <ele>231</ele>
        <time>2018-04-25T08:42:10Z</time>
      </trkpt>
      <trkpt lat="47.16631" lon="5.49493">
        <ele>233</ele>
        <time>2018-04-25T08:42:22Z</time>
      </trkpt>
      <trkpt lat="47.16622" lon="5.49499">
        <ele>234</ele>
        <time>2018-04-25T08:42:27Z</time>
      </trkpt>
      <trkpt lat="47.16618" lon="5.49511">
        <ele>235</ele>
        <time>2018-04-25T08:42:36Z</time>
      </trkpt>
      <trkpt lat="47.16619" lon="5.49528">
        <ele>235</ele>
        <time>2018-04-25T08:42:43Z</time>
      </trkpt>
      <trkpt lat="47.16609" lon="5.49537">
        <ele>236</ele>
        <time>2018-04-25T08:42:55Z</time>
      </trkpt>
      <trkpt lat="47.16603" lon="5.49545">
        <ele>235</ele>
        <time>2018-04-25T08:43:01Z</time>
      </trkpt>
      <trkpt lat="47.16596" lon="5.49556">
        <ele>236</ele>
        <time>2018-04-25T08:43:08Z</time>
      </trkpt>
      <trkpt lat="47.16591" lon="5.49567">
        <ele>236</ele>
        <time>2018-04-25T08:43:14Z</time>
      </trkpt>
      <trkpt lat="47.16578" lon="5.49592">
        <ele>235</ele>
        <time>2018-04-25T08:43:34Z</time>
      </trkpt>
      <trkpt lat="47.16573" lon="5.49602">
        <ele>237</ele>
        <time>2018-04-25T08:43:42Z</time>
      </trkpt>
      <trkpt lat="47.16567" lon="5.49613">
        <ele>238</ele>
        <time>2018-04-25T08:43:50Z</time>
      </trkpt>
      <trkpt lat="47.16563" lon="5.49624">
        <ele>238</ele>
        <time>2018-04-25T08:44:22Z</time>
      </trkpt>
      <trkpt lat="47.16557" lon="5.49637">
        <ele>235</ele>
        <time>2018-04-25T08:44:49Z</time>
      </trkpt>
      <trkpt lat="47.16548" lon="5.4965">
        <ele>237</ele>
        <time>2018-04-25T08:45:01Z</time>
      </trkpt>
      <trkpt lat="47.16546" lon="5.49663">
        <ele>238</ele>
        <time>2018-04-25T08:45:09Z</time>
      </trkpt>
      <trkpt lat="47.16547" lon="5.4968">
        <ele>240</ele>
        <time>2018-04-25T08:45:23Z</time>
      </trkpt>
      <trkpt lat="47.16543" lon="5.49695">
        <ele>241</ele>
        <time>2018-04-25T08:45:33Z</time>
      </trkpt>
      <trkpt lat="47.16545" lon="5.49709">
        <ele>242</ele>
        <time>2018-04-25T08:45:40Z</time>
      </trkpt>
      <trkpt lat="47.16544" lon="5.49723">
        <ele>245</ele>
        <time>2018-04-25T08:45:50Z</time>
      </trkpt>
      <trkpt lat="47.16521" lon="5.49726">
        <ele>250</ele>
        <time>2018-04-25T08:46:12Z</time>
      </trkpt>
      <trkpt lat="47.16511" lon="5.49727">
        <ele>250</ele>
        <time>2018-04-25T08:46:21Z</time>
      </trkpt>
      <trkpt lat="47.16492" lon="5.49725">
        <ele>255</ele>
        <time>2018-04-25T08:46:40Z</time>
      </trkpt>
      <trkpt lat="47.16481" lon="5.49725">
        <ele>254</ele>
        <time>2018-04-25T08:46:51Z</time>
      </trkpt>
      <trkpt lat="47.16461" lon="5.49724">
        <ele>257</ele>
        <time>2018-04-25T08:47:11Z</time>
      </trkpt>
      <trkpt lat="47.16452" lon="5.49722">
        <ele>257</ele>
        <time>2018-04-25T08:47:19Z</time>
      </trkpt>
      <trkpt lat="47.16436" lon="5.49723">
        <ele>258</ele>
        <time>2018-04-25T08:47:36Z</time>
      </trkpt>
      <trkpt lat="47.16426" lon="5.49728">
        <ele>260</ele>
        <time>2018-04-25T08:47:51Z</time>
      </trkpt>
      <trkpt lat="47.16416" lon="5.4973">
        <ele>260</ele>
        <time>2018-04-25T08:48:00Z</time>
      </trkpt>
      <trkpt lat="47.16397" lon="5.4974">
        <ele>260</ele>
        <time>2018-04-25T08:48:18Z</time>
      </trkpt>
      <trkpt lat="47.16389" lon="5.49744">
        <ele>261</ele>
        <time>2018-04-25T08:48:27Z</time>
      </trkpt>
      <trkpt lat="47.16384" lon="5.49756">
        <ele>263</ele>
        <time>2018-04-25T08:48:37Z</time>
      </trkpt>
      <trkpt lat="47.16376" lon="5.49764">
        <ele>264</ele>
        <time>2018-04-25T08:48:44Z</time>
      </trkpt>
      <trkpt lat="47.16368" lon="5.49779">
        <ele>266</ele>
        <time>2018-04-25T08:49:00Z</time>
      </trkpt>
      <trkpt lat="47.16359" lon="5.49783">
        <ele>267</ele>
        <time>2018-04-25T08:49:05Z</time>
      </trkpt>
      <trkpt lat="47.16334" lon="5.49782">
        <ele>269</ele>
        <time>2018-04-25T08:49:26Z</time>
      </trkpt>
      <trkpt lat="47.16325" lon="5.49779">
        <ele>267</ele>
        <time>2018-04-25T08:49:32Z</time>
      </trkpt>
      <trkpt lat="47.16315" lon="5.49778">
        <ele>268</ele>
        <time>2018-04-25T08:49:40Z</time>
      </trkpt>
      <trkpt lat="47.16304" lon="5.49784">
        <ele>269</ele>
        <time>2018-04-25T08:49:53Z</time>
      </trkpt>
      <trkpt lat="47.16296" lon="5.49794">
        <ele>269</ele>
        <time>2018-04-25T08:50:00Z</time>
      </trkpt>
      <trkpt lat="47.16283" lon="5.49795">
        <ele>269</ele>
        <time>2018-04-25T08:50:05Z</time>
      </trkpt>
      <trkpt lat="47.16279" lon="5.49784">
        <ele>269</ele>
        <time>2018-04-25T08:50:09Z</time>
      </trkpt>
      <trkpt lat="47.16269" lon="5.49793">
        <ele>271</ele>
        <time>2018-04-25T08:50:17Z</time>
      </trkpt>
      <trkpt lat="47.16259" lon="5.49799">
        <ele>271</ele>
        <time>2018-04-25T08:50:30Z</time>
      </trkpt>
      <trkpt lat="47.16249" lon="5.49799">
        <ele>271</ele>
        <time>2018-04-25T08:50:32Z</time>
      </trkpt>
      <trkpt lat="47.16231" lon="5.49805">
        <ele>272</ele>
        <time>2018-04-25T08:50:46Z</time>
      </trkpt>
      <trkpt lat="47.16215" lon="5.49812">
        <ele>276</ele>
        <time>2018-04-25T08:51:09Z</time>
      </trkpt>
      <trkpt lat="47.16207" lon="5.4982">
        <ele>276</ele>
        <time>2018-04-25T08:51:17Z</time>
      </trkpt>
      <trkpt lat="47.16198" lon="5.49823">
        <ele>276</ele>
        <time>2018-04-25T08:51:24Z</time>
      </trkpt>
      <trkpt lat="47.16198" lon="5.49836">
        <ele>274</ele>
        <time>2018-04-25T08:51:33Z</time>
      </trkpt>
      <trkpt lat="47.16191" lon="5.49845">
        <ele>276</ele>
        <time>2018-04-25T08:51:41Z</time>
      </trkpt>
      <trkpt lat="47.1616" lon="5.49849">
        <ele>278</ele>
        <time>2018-04-25T08:52:13Z</time>
      </trkpt>
      <trkpt lat="47.16141" lon="5.49849">
        <ele>281</ele>
        <time>2018-04-25T08:52:30Z</time>
      </trkpt>
      <trkpt lat="47.16131" lon="5.49843">
        <ele>280</ele>
        <time>2018-04-25T08:52:42Z</time>
      </trkpt>
      <trkpt lat="47.16115" lon="5.49844">
        <ele>283</ele>
        <time>2018-04-25T08:52:58Z</time>
      </trkpt>
      <trkpt lat="47.16096" lon="5.49846">
        <ele>283</ele>
        <time>2018-04-25T08:53:13Z</time>
      </trkpt>
      <trkpt lat="47.16068" lon="5.49846">
        <ele>288</ele>
        <time>2018-04-25T08:53:33Z</time>
      </trkpt>
      <trkpt lat="47.16048" lon="5.49844">
        <ele>290</ele>
        <time>2018-04-25T08:53:47Z</time>
      </trkpt>
      <trkpt lat="47.16038" lon="5.49845">
        <ele>290</ele>
        <time>2018-04-25T08:53:54Z</time>
      </trkpt>
      <trkpt lat="47.16019" lon="5.49849">
        <ele>289</ele>
        <time>2018-04-25T08:54:10Z</time>
      </trkpt>
      <trkpt lat="47.1601" lon="5.49854">
        <ele>292</ele>
        <time>2018-04-25T08:54:26Z</time>
      </trkpt>
      <trkpt lat="47.15983" lon="5.49853">
        <ele>293</ele>
        <time>2018-04-25T08:55:00Z</time>
      </trkpt>
      <trkpt lat="47.15972" lon="5.49853">
        <ele>294</ele>
        <time>2018-04-25T08:55:08Z</time>
      </trkpt>
      <trkpt lat="47.1596" lon="5.49855">
        <ele>292</ele>
        <time>2018-04-25T08:55:21Z</time>
      </trkpt>
      <trkpt lat="47.15949" lon="5.49859">
        <ele>296</ele>
        <time>2018-04-25T08:55:36Z</time>
      </trkpt>
      <trkpt lat="47.15938" lon="5.49859">
        <ele>293</ele>
        <time>2018-04-25T08:55:51Z</time>
      </trkpt>
      <trkpt lat="47.15931" lon="5.49855">
        <ele>293</ele>
        <time>2018-04-25T08:57:39Z</time>
      </trkpt>
      <trkpt lat="47.15925" lon="5.49855">
        <ele>296</ele>
        <time>2018-04-25T08:57:46Z</time>
      </trkpt>
      <trkpt lat="47.15921" lon="5.49856">
        <ele>300</ele>
        <time>2018-04-25T08:57:51Z</time>
      </trkpt>
      <trkpt lat="47.15916" lon="5.49856">
        <ele>299</ele>
        <time>2018-04-25T08:57:56Z</time>
      </trkpt>
      <trkpt lat="47.15911" lon="5.49857">
        <ele>300</ele>
        <time>2018-04-25T08:58:01Z</time>
      </trkpt>
      <trkpt lat="47.15906" lon="5.49856">
        <ele>299</ele>
        <time>2018-04-25T08:58:05Z</time>
      </trkpt>
      <trkpt lat="47.15887" lon="5.49855">
        <ele>301</ele>
        <time>2018-04-25T08:58:18Z</time>
      </trkpt>
      <trkpt lat="47.15868" lon="5.49857">
        <ele>302</ele>
        <time>2018-04-25T08:58:35Z</time>
      </trkpt>
      <trkpt lat="47.15859" lon="5.49856">
        <ele>303</ele>
        <time>2018-04-25T08:58:41Z</time>
      </trkpt>
      <trkpt lat="47.15846" lon="5.49854">
        <ele>303</ele>
        <time>2018-04-25T08:58:57Z</time>
      </trkpt>
      <trkpt lat="47.15836" lon="5.49856">
        <ele>304</ele>
        <time>2018-04-25T08:59:08Z</time>
      </trkpt>
      <trkpt lat="47.15827" lon="5.49855">
        <ele>304</ele>
        <time>2018-04-25T08:59:16Z</time>
      </trkpt>
      <trkpt lat="47.15818" lon="5.49852">
        <ele>306</ele>
        <time>2018-04-25T08:59:24Z</time>
      </trkpt>
      <trkpt lat="47.15808" lon="5.49849">
        <ele>305</ele>
        <time>2018-04-25T08:59:35Z</time>
      </trkpt>
      <trkpt lat="47.15799" lon="5.49845">
        <ele>305</ele>
        <time>2018-04-25T08:59:42Z</time>
      </trkpt>
      <trkpt lat="47.15791" lon="5.4984">
        <ele>304</ele>
        <time>2018-04-25T08:59:50Z</time>
      </trkpt>
      <trkpt lat="47.15763" lon="5.49826">
        <ele>309</ele>
        <time>2018-04-25T09:00:14Z</time>
      </trkpt>
      <trkpt lat="47.15754" lon="5.49822">
        <ele>309</ele>
        <time>2018-04-25T09:00:22Z</time>
      </trkpt>
      <trkpt lat="47.15727" lon="5.49809">
        <ele>307</ele>
        <time>2018-04-25T09:00:45Z</time>
      </trkpt>
      <trkpt lat="47.15718" lon="5.49803">
        <ele>308</ele>
        <time>2018-04-25T09:00:52Z</time>
      </trkpt>
      <trkpt lat="47.15684" lon="5.49778">
        <ele>309</ele>
        <time>2018-04-25T09:01:25Z</time>
      </trkpt>
      <trkpt lat="47.15672" lon="5.49769">
        <ele>309</ele>
        <time>2018-04-25T09:01:38Z</time>
      </trkpt>
      <trkpt lat="47.15663" lon="5.49764">
        <ele>311</ele>
        <time>2018-04-25T09:01:46Z</time>
      </trkpt>
      <trkpt lat="47.15656" lon="5.49757">
        <ele>311</ele>
        <time>2018-04-25T09:01:53Z</time>
      </trkpt>
      <trkpt lat="47.15647" lon="5.4975">
        <ele>313</ele>
        <time>2018-04-25T09:02:00Z</time>
      </trkpt>
      <trkpt lat="47.15631" lon="5.49738">
        <ele>312</ele>
        <time>2018-04-25T09:02:16Z</time>
      </trkpt>
      <trkpt lat="47.15622" lon="5.49733">
        <ele>312</ele>
        <time>2018-04-25T09:02:26Z</time>
      </trkpt>
      <trkpt lat="47.15613" lon="5.49727">
        <ele>313</ele>
        <time>2018-04-25T09:02:34Z</time>
      </trkpt>
      <trkpt lat="47.15605" lon="5.49721">
        <ele>313</ele>
        <time>2018-04-25T09:02:42Z</time>
      </trkpt>
      <trkpt lat="47.15587" lon="5.49707">
        <ele>316</ele>
        <time>2018-04-25T09:02:57Z</time>
      </trkpt>
      <trkpt lat="47.15578" lon="5.497">
        <ele>316</ele>
        <time>2018-04-25T09:03:05Z</time>
      </trkpt>
      <trkpt lat="47.1557" lon="5.49693">
        <ele>316</ele>
        <time>2018-04-25T09:03:13Z</time>
      </trkpt>
      <trkpt lat="47.15561" lon="5.49685">
        <ele>314</ele>
        <time>2018-04-25T09:03:22Z</time>
      </trkpt>
      <trkpt lat="47.15552" lon="5.49678">
        <ele>315</ele>
        <time>2018-04-25T09:03:30Z</time>
      </trkpt>
      <trkpt lat="47.15516" lon="5.49656">
        <ele>313</ele>
        <time>2018-04-25T09:04:01Z</time>
      </trkpt>
      <trkpt lat="47.15501" lon="5.49645">
        <ele>312</ele>
        <time>2018-04-25T09:04:15Z</time>
      </trkpt>
      <trkpt lat="47.15497" lon="5.49641">
        <ele>312</ele>
        <time>2018-04-25T09:04:19Z</time>
      </trkpt>
      <trkpt lat="47.15493" lon="5.49637">
        <ele>312</ele>
        <time>2018-04-25T09:04:23Z</time>
      </trkpt>
      <trkpt lat="47.15488" lon="5.49634">
        <ele>312</ele>
        <time>2018-04-25T09:04:27Z</time>
      </trkpt>
      <trkpt lat="47.15478" lon="5.49628">
        <ele>314</ele>
        <time>2018-04-25T09:04:35Z</time>
      </trkpt>
      <trkpt lat="47.15474" lon="5.49624">
        <ele>314</ele>
        <time>2018-04-25T09:04:39Z</time>
      </trkpt>
      <trkpt lat="47.15469" lon="5.49621">
        <ele>314</ele>
        <time>2018-04-25T09:04:43Z</time>
      </trkpt>
      <trkpt lat="47.15465" lon="5.49618">
        <ele>314</ele>
        <time>2018-04-25T09:04:46Z</time>
      </trkpt>
      <trkpt lat="47.1546" lon="5.49614">
        <ele>314</ele>
        <time>2018-04-25T09:04:50Z</time>
      </trkpt>
      <trkpt lat="47.15455" lon="5.49611">
        <ele>314</ele>
        <time>2018-04-25T09:04:54Z</time>
      </trkpt>
      <trkpt lat="47.15446" lon="5.49604">
        <ele>314</ele>
        <time>2018-04-25T09:05:03Z</time>
      </trkpt>
      <trkpt lat="47.15441" lon="5.496">
        <ele>313</ele>
        <time>2018-04-25T09:05:08Z</time>
      </trkpt>
      <trkpt lat="47.15433" lon="5.49594">
        <ele>313</ele>
        <time>2018-04-25T09:05:17Z</time>
      </trkpt>
      <trkpt lat="47.15428" lon="5.4959">
        <ele>313</ele>
        <time>2018-04-25T09:05:21Z</time>
      </trkpt>
      <trkpt lat="47.15423" lon="5.49586">
        <ele>313</ele>
        <time>2018-04-25T09:05:25Z</time>
      </trkpt>
      <trkpt lat="47.15418" lon="5.49583">
        <ele>312</ele>
        <time>2018-04-25T09:05:29Z</time>
      </trkpt>
      <trkpt lat="47.15413" lon="5.49581">
        <ele>312</ele>
        <time>2018-04-25T09:05:33Z</time>
      </trkpt>
      <trkpt lat="47.15409" lon="5.49578">
        <ele>312</ele>
        <time>2018-04-25T09:05:37Z</time>
      </trkpt>
      <trkpt lat="47.15405" lon="5.49575">
        <ele>312</ele>
        <time>2018-04-25T09:05:41Z</time>
      </trkpt>
      <trkpt lat="47.154" lon="5.49571">
        <ele>312</ele>
        <time>2018-04-25T09:05:45Z</time>
      </trkpt>
      <trkpt lat="47.15396" lon="5.49567">
        <ele>311</ele>
        <time>2018-04-25T09:05:49Z</time>
      </trkpt>
      <trkpt lat="47.15391" lon="5.49562">
        <ele>312</ele>
        <time>2018-04-25T09:05:53Z</time>
      </trkpt>
      <trkpt lat="47.15387" lon="5.49559">
        <ele>310</ele>
        <time>2018-04-25T09:05:57Z</time>
      </trkpt>
      <trkpt lat="47.15379" lon="5.49553">
        <ele>311</ele>
        <time>2018-04-25T09:06:05Z</time>
      </trkpt>
      <trkpt lat="47.15374" lon="5.49549">
        <ele>310</ele>
        <time>2018-04-25T09:06:10Z</time>
      </trkpt>
      <trkpt lat="47.15369" lon="5.49545">
        <ele>310</ele>
        <time>2018-04-25T09:06:15Z</time>
      </trkpt>
      <trkpt lat="47.15365" lon="5.49541">
        <ele>310</ele>
        <time>2018-04-25T09:06:18Z</time>
      </trkpt>
      <trkpt lat="47.15356" lon="5.49534">
        <ele>309</ele>
        <time>2018-04-25T09:06:26Z</time>
      </trkpt>
      <trkpt lat="47.15347" lon="5.49527">
        <ele>309</ele>
        <time>2018-04-25T09:06:34Z</time>
      </trkpt>
      <trkpt lat="47.15342" lon="5.49522">
        <ele>308</ele>
        <time>2018-04-25T09:06:38Z</time>
      </trkpt>
      <trkpt lat="47.15329" lon="5.49511">
        <ele>308</ele>
        <time>2018-04-25T09:06:50Z</time>
      </trkpt>
      <trkpt lat="47.1532" lon="5.49505">
        <ele>306</ele>
        <time>2018-04-25T09:06:59Z</time>
      </trkpt>
      <trkpt lat="47.15313" lon="5.49497">
        <ele>306</ele>
        <time>2018-04-25T09:07:07Z</time>
      </trkpt>
      <trkpt lat="47.15303" lon="5.49491">
        <ele>306</ele>
        <time>2018-04-25T09:07:15Z</time>
      </trkpt>
      <trkpt lat="47.15299" lon="5.49488">
        <ele>306</ele>
        <time>2018-04-25T09:07:19Z</time>
      </trkpt>
      <trkpt lat="47.15284" lon="5.49477">
        <ele>303</ele>
        <time>2018-04-25T09:07:38Z</time>
      </trkpt>
      <trkpt lat="47.15279" lon="5.49476">
        <ele>303</ele>
        <time>2018-04-25T09:07:42Z</time>
      </trkpt>
      <trkpt lat="47.15274" lon="5.49471">
        <ele>304</ele>
        <time>2018-04-25T09:07:46Z</time>
      </trkpt>
      <trkpt lat="47.15269" lon="5.49466">
        <ele>304</ele>
        <time>2018-04-25T09:07:50Z</time>
      </trkpt>
      <trkpt lat="47.15264" lon="5.49461">
        <ele>303</ele>
        <time>2018-04-25T09:07:54Z</time>
      </trkpt>
      <trkpt lat="47.1526" lon="5.49457">
        <ele>303</ele>
        <time>2018-04-25T09:07:58Z</time>
      </trkpt>
      <trkpt lat="47.15256" lon="5.49454">
        <ele>303</ele>
        <time>2018-04-25T09:08:02Z</time>
      </trkpt>
      <trkpt lat="47.15251" lon="5.49451">
        <ele>303</ele>
        <time>2018-04-25T09:08:06Z</time>
      </trkpt>
      <trkpt lat="47.15246" lon="5.49448">
        <ele>303</ele>
        <time>2018-04-25T09:08:10Z</time>
      </trkpt>
      <trkpt lat="47.15241" lon="5.49445">
        <ele>302</ele>
        <time>2018-04-25T09:08:14Z</time>
      </trkpt>
      <trkpt lat="47.15236" lon="5.49442">
        <ele>302</ele>
        <time>2018-04-25T09:08:18Z</time>
      </trkpt>
      <trkpt lat="47.15227" lon="5.49435">
        <ele>302</ele>
        <time>2018-04-25T09:08:26Z</time>
      </trkpt>
      <trkpt lat="47.15218" lon="5.49428">
        <ele>299</ele>
        <time>2018-04-25T09:08:34Z</time>
      </trkpt>
      <trkpt lat="47.15202" lon="5.49413">
        <ele>299</ele>
        <time>2018-04-25T09:08:49Z</time>
      </trkpt>
      <trkpt lat="47.15177" lon="5.49391">
        <ele>295</ele>
        <time>2018-04-25T09:09:14Z</time>
      </trkpt>
      <trkpt lat="47.15169" lon="5.49382">
        <ele>295</ele>
        <time>2018-04-25T09:09:22Z</time>
      </trkpt>
      <trkpt lat="47.1516" lon="5.49376">
        <ele>296</ele>
        <time>2018-04-25T09:09:29Z</time>
      </trkpt>
      <trkpt lat="47.15151" lon="5.4937">
        <ele>296</ele>
        <time>2018-04-25T09:09:36Z</time>
      </trkpt>
      <trkpt lat="47.15142" lon="5.49362">
        <ele>295</ele>
        <time>2018-04-25T09:09:43Z</time>
      </trkpt>
      <trkpt lat="47.15132" lon="5.49357">
        <ele>293</ele>
        <time>2018-04-25T09:09:54Z</time>
      </trkpt>
      <trkpt lat="47.15115" lon="5.49343">
        <ele>293</ele>
        <time>2018-04-25T09:10:09Z</time>
      </trkpt>
      <trkpt lat="47.15107" lon="5.49334">
        <ele>295</ele>
        <time>2018-04-25T09:10:17Z</time>
      </trkpt>
      <trkpt lat="47.15073" lon="5.4931">
        <ele>288</ele>
        <time>2018-04-25T09:10:48Z</time>
      </trkpt>
      <trkpt lat="47.15056" lon="5.49298">
        <ele>284</ele>
        <time>2018-04-25T09:11:03Z</time>
      </trkpt>
      <trkpt lat="47.15013" lon="5.49266">
        <ele>278</ele>
        <time>2018-04-25T09:11:42Z</time>
      </trkpt>
      <trkpt lat="47.15004" lon="5.4926">
        <ele>277</ele>
        <time>2018-04-25T09:11:50Z</time>
      </trkpt>
      <trkpt lat="47.14996" lon="5.49253">
        <ele>277</ele>
        <time>2018-04-25T09:11:56Z</time>
      </trkpt>
      <trkpt lat="47.1497" lon="5.49233">
        <ele>274</ele>
        <time>2018-04-25T09:12:17Z</time>
      </trkpt>
      <trkpt lat="47.14962" lon="5.49228">
        <ele>274</ele>
        <time>2018-04-25T09:12:24Z</time>
      </trkpt>
      <trkpt lat="47.14954" lon="5.49222">
        <ele>273</ele>
        <time>2018-04-25T09:12:32Z</time>
      </trkpt>
      <trkpt lat="47.14927" lon="5.49202">
        <ele>273</ele>
        <time>2018-04-25T09:12:55Z</time>
      </trkpt>
      <trkpt lat="47.14919" lon="5.49196">
        <ele>274</ele>
        <time>2018-04-25T09:13:02Z</time>
      </trkpt>
      <trkpt lat="47.14902" lon="5.49183">
        <ele>273</ele>
        <time>2018-04-25T09:13:16Z</time>
      </trkpt>
      <trkpt lat="47.14893" lon="5.49177">
        <ele>274</ele>
        <time>2018-04-25T09:13:24Z</time>
      </trkpt>
      <trkpt lat="47.14885" lon="5.49171">
        <ele>273</ele>
        <time>2018-04-25T09:13:31Z</time>
      </trkpt>
      <trkpt lat="47.14868" lon="5.4916">
        <ele>270</ele>
        <time>2018-04-25T09:13:47Z</time>
      </trkpt>
      <trkpt lat="47.14852" lon="5.49147">
        <ele>271</ele>
        <time>2018-04-25T09:14:01Z</time>
      </trkpt>
      <trkpt lat="47.14847" lon="5.49136">
        <ele>269</ele>
        <time>2018-04-25T09:14:08Z</time>
      </trkpt>
      <trkpt lat="47.1484" lon="5.49108">
        <ele>269</ele>
        <time>2018-04-25T09:14:24Z</time>
      </trkpt>
      <trkpt lat="47.14839" lon="5.49094">
        <ele>270</ele>
        <time>2018-04-25T09:14:31Z</time>
      </trkpt>
      <trkpt lat="47.14832" lon="5.49071">
        <ele>270</ele>
        <time>2018-04-25T09:14:44Z</time>
      </trkpt>
      <trkpt lat="47.14824" lon="5.49063">
        <ele>269</ele>
        <time>2018-04-25T09:14:51Z</time>
      </trkpt>
      <trkpt lat="47.14814" lon="5.4906">
        <ele>270</ele>
        <time>2018-04-25T09:14:58Z</time>
      </trkpt>
      <trkpt lat="47.14805" lon="5.49063">
        <ele>271</ele>
        <time>2018-04-25T09:15:05Z</time>
      </trkpt>
      <trkpt lat="47.14796" lon="5.49068">
        <ele>272</ele>
        <time>2018-04-25T09:15:13Z</time>
      </trkpt>
      <trkpt lat="47.14787" lon="5.49076">
        <ele>272</ele>
        <time>2018-04-25T09:15:22Z</time>
      </trkpt>
      <trkpt lat="47.14779" lon="5.49084">
        <ele>270</ele>
        <time>2018-04-25T09:15:31Z</time>
      </trkpt>
      <trkpt lat="47.1476" lon="5.49102">
        <ele>269</ele>
        <time>2018-04-25T09:15:50Z</time>
      </trkpt>
      <trkpt lat="47.14756" lon="5.49104">
        <ele>268</ele>
        <time>2018-04-25T09:15:54Z</time>
      </trkpt>
      <trkpt lat="47.14752" lon="5.49104">
        <ele>268</ele>
        <time>2018-04-25T09:15:57Z</time>
      </trkpt>
      <trkpt lat="47.14747" lon="5.49102">
        <ele>269</ele>
        <time>2018-04-25T09:16:01Z</time>
      </trkpt>
      <trkpt lat="47.14736" lon="5.49091">
        <ele>266</ele>
        <time>2018-04-25T09:16:14Z</time>
      </trkpt>
      <trkpt lat="47.14733" lon="5.49086">
        <ele>267</ele>
        <time>2018-04-25T09:16:17Z</time>
      </trkpt>
      <trkpt lat="47.14724" lon="5.49067">
        <ele>267</ele>
        <time>2018-04-25T09:16:29Z</time>
      </trkpt>
      <trkpt lat="47.14722" lon="5.49061">
        <ele>267</ele>
        <time>2018-04-25T09:16:32Z</time>
      </trkpt>
      <trkpt lat="47.14719" lon="5.49056">
        <ele>266</ele>
        <time>2018-04-25T09:16:35Z</time>
      </trkpt>
      <trkpt lat="47.14716" lon="5.49051">
        <ele>267</ele>
        <time>2018-04-25T09:16:38Z</time>
      </trkpt>
      <trkpt lat="47.14713" lon="5.49046">
        <ele>267</ele>
        <time>2018-04-25T09:16:42Z</time>
      </trkpt>
      <trkpt lat="47.14707" lon="5.49034">
        <ele>269</ele>
        <time>2018-04-25T09:16:50Z</time>
      </trkpt>
      <trkpt lat="47.14702" lon="5.49022">
        <ele>268</ele>
        <time>2018-04-25T09:16:58Z</time>
      </trkpt>
      <trkpt lat="47.14696" lon="5.4901">
        <ele>269</ele>
        <time>2018-04-25T09:17:06Z</time>
      </trkpt>
      <trkpt lat="47.14686" lon="5.48988">
        <ele>268</ele>
        <time>2018-04-25T09:17:20Z</time>
      </trkpt>
      <trkpt lat="47.14679" lon="5.48976">
        <ele>268</ele>
        <time>2018-04-25T09:17:28Z</time>
      </trkpt>
      <trkpt lat="47.14673" lon="5.48966">
        <ele>268</ele>
        <time>2018-04-25T09:17:36Z</time>
      </trkpt>
      <trkpt lat="47.14668" lon="5.48956">
        <ele>266</ele>
        <time>2018-04-25T09:17:44Z</time>
      </trkpt>
      <trkpt lat="47.14661" lon="5.48945">
        <ele>266</ele>
        <time>2018-04-25T09:17:52Z</time>
      </trkpt>
      <trkpt lat="47.14654" lon="5.48936">
        <ele>265</ele>
        <time>2018-04-25T09:17:59Z</time>
      </trkpt>
      <trkpt lat="47.1464" lon="5.48916">
        <ele>264</ele>
        <time>2018-04-25T09:18:16Z</time>
      </trkpt>
      <trkpt lat="47.14633" lon="5.48907">
        <ele>263</ele>
        <time>2018-04-25T09:18:25Z</time>
      </trkpt>
      <trkpt lat="47.14626" lon="5.48898">
        <ele>263</ele>
        <time>2018-04-25T09:18:33Z</time>
      </trkpt>
      <trkpt lat="47.14611" lon="5.48878">
        <ele>260</ele>
        <time>2018-04-25T09:18:49Z</time>
      </trkpt>
      <trkpt lat="47.14602" lon="5.4887">
        <ele>261</ele>
        <time>2018-04-25T09:18:56Z</time>
      </trkpt>
      <trkpt lat="47.14594" lon="5.48862">
        <ele>261</ele>
        <time>2018-04-25T09:19:04Z</time>
      </trkpt>
      <trkpt lat="47.14586" lon="5.48856">
        <ele>261</ele>
        <time>2018-04-25T09:19:13Z</time>
      </trkpt>
      <trkpt lat="47.14569" lon="5.48842">
        <ele>260</ele>
        <time>2018-04-25T09:19:31Z</time>
      </trkpt>
      <trkpt lat="47.14563" lon="5.48839">
        <ele>260</ele>
        <time>2018-04-25T09:19:36Z</time>
      </trkpt>
      <trkpt lat="47.14558" lon="5.48838">
        <ele>260</ele>
        <time>2018-04-25T09:19:40Z</time>
      </trkpt>
      <trkpt lat="47.14554" lon="5.4884">
        <ele>260</ele>
        <time>2018-04-25T09:19:44Z</time>
      </trkpt>
      <trkpt lat="47.14549" lon="5.48844">
        <ele>261</ele>
        <time>2018-04-25T09:19:49Z</time>
      </trkpt>
      <trkpt lat="47.14545" lon="5.48847">
        <ele>261</ele>
        <time>2018-04-25T09:19:54Z</time>
      </trkpt>
      <trkpt lat="47.14532" lon="5.48858">
        <ele>259</ele>
        <time>2018-04-25T09:20:08Z</time>
      </trkpt>
      <trkpt lat="47.14518" lon="5.48869">
        <ele>259</ele>
        <time>2018-04-25T09:20:22Z</time>
      </trkpt>
      <trkpt lat="47.14481" lon="5.489">
        <ele>252</ele>
        <time>2018-04-25T09:21:01Z</time>
      </trkpt>
      <trkpt lat="47.14448" lon="5.48923">
        <ele>250</ele>
        <time>2018-04-25T09:21:32Z</time>
      </trkpt>
      <trkpt lat="47.14439" lon="5.48928">
        <ele>249</ele>
        <time>2018-04-25T09:21:41Z</time>
      </trkpt>
      <trkpt lat="47.1442" lon="5.4893">
        <ele>248</ele>
        <time>2018-04-25T09:21:54Z</time>
      </trkpt>
      <trkpt lat="47.14411" lon="5.48935">
        <ele>248</ele>
        <time>2018-04-25T09:22:02Z</time>
      </trkpt>
      <trkpt lat="47.14407" lon="5.48949">
        <ele>248</ele>
        <time>2018-04-25T09:22:10Z</time>
      </trkpt>
      <trkpt lat="47.14404" lon="5.48962">
        <ele>247</ele>
        <time>2018-04-25T09:22:18Z</time>
      </trkpt>
      <trkpt lat="47.14406" lon="5.48988">
        <ele>246</ele>
        <time>2018-04-25T09:22:34Z</time>
      </trkpt>
      <trkpt lat="47.14407" lon="5.48996">
        <ele>245</ele>
        <time>2018-04-25T09:22:40Z</time>
      </trkpt>
      <trkpt lat="47.14407" lon="5.49003">
        <ele>245</ele>
        <time>2018-04-25T09:22:44Z</time>
      </trkpt>
      <trkpt lat="47.14407" lon="5.4901">
        <ele>244</ele>
        <time>2018-04-25T09:22:48Z</time>
      </trkpt>
      <trkpt lat="47.14407" lon="5.49017">
        <ele>244</ele>
        <time>2018-04-25T09:22:52Z</time>
      </trkpt>
      <trkpt lat="47.14406" lon="5.49024">
        <ele>244</ele>
        <time>2018-04-25T09:22:57Z</time>
      </trkpt>
      <trkpt lat="47.14402" lon="5.49027">
        <ele>243</ele>
        <time>2018-04-25T09:23:01Z</time>
      </trkpt>
      <trkpt lat="47.14372" lon="5.4901">
        <ele>237</ele>
        <time>2018-04-25T09:23:31Z</time>
      </trkpt>
      <trkpt lat="47.14358" lon="5.48999">
        <ele>235</ele>
        <time>2018-04-25T09:23:48Z</time>
      </trkpt>
      <trkpt lat="47.14348" lon="5.48996">
        <ele>234</ele>
        <time>2018-04-25T09:23:58Z</time>
      </trkpt>
      <trkpt lat="47.14343" lon="5.48993">
        <ele>234</ele>
        <time>2018-04-25T09:24:02Z</time>
      </trkpt>
      <trkpt lat="47.14339" lon="5.48987">
        <ele>232</ele>
        <time>2018-04-25T09:24:06Z</time>
      </trkpt>
      <trkpt lat="47.14336" lon="5.48982">
        <ele>232</ele>
        <time>2018-04-25T09:24:10Z</time>
      </trkpt>
      <trkpt lat="47.14331" lon="5.48975">
        <ele>232</ele>
        <time>2018-04-25T09:24:18Z</time>
      </trkpt>
      <trkpt lat="47.14328" lon="5.48972">
        <ele>232</ele>
        <time>2018-04-25T09:24:21Z</time>
      </trkpt>
      <trkpt lat="47.14324" lon="5.48968">
        <ele>231</ele>
        <time>2018-04-25T09:24:25Z</time>
      </trkpt>
      <trkpt lat="47.14319" lon="5.48963">
        <ele>232</ele>
        <time>2018-04-25T09:24:32Z</time>
      </trkpt>
      <trkpt lat="47.14316" lon="5.48957">
        <ele>232</ele>
        <time>2018-04-25T09:24:36Z</time>
      </trkpt>
      <trkpt lat="47.14311" lon="5.48949">
        <ele>231</ele>
        <time>2018-04-25T09:24:43Z</time>
      </trkpt>
      <trkpt lat="47.14306" lon="5.48946">
        <ele>232</ele>
        <time>2018-04-25T09:24:47Z</time>
      </trkpt>
      <trkpt lat="47.14296" lon="5.48946">
        <ele>234</ele>
        <time>2018-04-25T09:24:55Z</time>
      </trkpt>
      <trkpt lat="47.14262" lon="5.48949">
        <ele>230</ele>
        <time>2018-04-25T09:25:25Z</time>
      </trkpt>
      <trkpt lat="47.14245" lon="5.48951">
        <ele>231</ele>
        <time>2018-04-25T09:25:42Z</time>
      </trkpt>
      <trkpt lat="47.14235" lon="5.48952">
        <ele>231</ele>
        <time>2018-04-25T09:25:50Z</time>
      </trkpt>
      <trkpt lat="47.14226" lon="5.48957">
        <ele>231</ele>
        <time>2018-04-25T09:25:57Z</time>
      </trkpt>
      <trkpt lat="47.14217" lon="5.48964">
        <ele>229</ele>
        <time>2018-04-25T09:26:05Z</time>
      </trkpt>
      <trkpt lat="47.14212" lon="5.48969">
        <ele>229</ele>
        <time>2018-04-25T09:26:09Z</time>
      </trkpt>
      <trkpt lat="47.14204" lon="5.48988">
        <ele>232</ele>
        <time>2018-04-25T09:26:21Z</time>
      </trkpt>
      <trkpt lat="47.14198" lon="5.4901">
        <ele>232</ele>
        <time>2018-04-25T09:26:34Z</time>
      </trkpt>
      <trkpt lat="47.14195" lon="5.49015">
        <ele>232</ele>
        <time>2018-04-25T09:26:38Z</time>
      </trkpt>
      <trkpt lat="47.14191" lon="5.49019">
        <ele>232</ele>
        <time>2018-04-25T09:26:43Z</time>
      </trkpt>
      <trkpt lat="47.14186" lon="5.49021">
        <ele>233</ele>
        <time>2018-04-25T09:26:47Z</time>
      </trkpt>
      <trkpt lat="47.14181" lon="5.49019">
        <ele>233</ele>
        <time>2018-04-25T09:26:51Z</time>
      </trkpt>
      <trkpt lat="47.14175" lon="5.49019">
        <ele>234</ele>
        <time>2018-04-25T09:26:56Z</time>
      </trkpt>
      <trkpt lat="47.14157" lon="5.49012">
        <ele>231</ele>
        <time>2018-04-25T09:27:09Z</time>
      </trkpt>
      <trkpt lat="47.14152" lon="5.49013">
        <ele>230</ele>
        <time>2018-04-25T09:27:14Z</time>
      </trkpt>
      <trkpt lat="47.14144" lon="5.49015">
        <ele>230</ele>
        <time>2018-04-25T09:27:22Z</time>
      </trkpt>
      <trkpt lat="47.14139" lon="5.49018">
        <ele>231</ele>
        <time>2018-04-25T09:27:26Z</time>
      </trkpt>
      <trkpt lat="47.14121" lon="5.49008">
        <ele>231</ele>
        <time>2018-04-25T09:27:40Z</time>
      </trkpt>
      <trkpt lat="47.14112" lon="5.49004">
        <ele>232</ele>
        <time>2018-04-25T09:27:50Z</time>
      </trkpt>
      <trkpt lat="47.14105" lon="5.48996">
        <ele>231</ele>
        <time>2018-04-25T09:27:58Z</time>
      </trkpt>
      <trkpt lat="47.14098" lon="5.48995">
        <ele>230</ele>
        <time>2018-04-25T09:28:03Z</time>
      </trkpt>
      <trkpt lat="47.1409" lon="5.48988">
        <ele>226</ele>
        <time>2018-04-25T09:28:11Z</time>
      </trkpt>
      <trkpt lat="47.14085" lon="5.48985">
        <ele>226</ele>
        <time>2018-04-25T09:28:15Z</time>
      </trkpt>
      <trkpt lat="47.14081" lon="5.48982">
        <ele>226</ele>
        <time>2018-04-25T09:28:19Z</time>
      </trkpt>
      <trkpt lat="47.14076" lon="5.4898">
        <ele>226</ele>
        <time>2018-04-25T09:28:23Z</time>
      </trkpt>
      <trkpt lat="47.14071" lon="5.48978">
        <ele>225</ele>
        <time>2018-04-25T09:28:27Z</time>
      </trkpt>
      <trkpt lat="47.14066" lon="5.48975">
        <ele>225</ele>
        <time>2018-04-25T09:28:31Z</time>
      </trkpt>
      <trkpt lat="47.14055" lon="5.48976">
        <ele>225</ele>
        <time>2018-04-25T09:28:42Z</time>
      </trkpt>
      <trkpt lat="47.14046" lon="5.4897">
        <ele>224</ele>
        <time>2018-04-25T09:28:50Z</time>
      </trkpt>
      <trkpt lat="47.14043" lon="5.48955">
        <ele>223</ele>
        <time>2018-04-25T09:28:57Z</time>
      </trkpt>
      <trkpt lat="47.14043" lon="5.48948">
        <ele>224</ele>
        <time>2018-04-25T09:29:00Z</time>
      </trkpt>
      <trkpt lat="47.14033" lon="5.48947">
        <ele>224</ele>
        <time>2018-04-25T09:29:07Z</time>
      </trkpt>
      <trkpt lat="47.14022" lon="5.48947">
        <ele>224</ele>
        <time>2018-04-25T09:29:15Z</time>
      </trkpt>
      <trkpt lat="47.14012" lon="5.48949">
        <ele>223</ele>
        <time>2018-04-25T09:29:22Z</time>
      </trkpt>
      <trkpt lat="47.13978" lon="5.48956">
        <ele>226</ele>
        <time>2018-04-25T09:29:54Z</time>
      </trkpt>
      <trkpt lat="47.13969" lon="5.4895">
        <ele>225</ele>
        <time>2018-04-25T09:30:02Z</time>
      </trkpt>
      <trkpt lat="47.13961" lon="5.48941">
        <ele>224</ele>
        <time>2018-04-25T09:30:11Z</time>
      </trkpt>
      <trkpt lat="47.13945" lon="5.48927">
        <ele>223</ele>
        <time>2018-04-25T09:30:27Z</time>
      </trkpt>
      <trkpt lat="47.13936" lon="5.4892">
        <ele>224</ele>
        <time>2018-04-25T09:30:35Z</time>
      </trkpt>
      <trkpt lat="47.13929" lon="5.48911">
        <ele>222</ele>
        <time>2018-04-25T09:30:43Z</time>
      </trkpt>
      <trkpt lat="47.13926" lon="5.48901">
        <ele>222</ele>
        <time>2018-04-25T09:30:55Z</time>
      </trkpt>
    </trkseg>
  </trk>
</gpx>